PORTS® Data Listing: 8575512 Annapolis, MD

CO-OPS RAW PORTS DATA

************************      PRELIMINARY DATA      ************************** 

     THIS RAW DATA HAS NOT BEEN SUBJECT TO THE NATIONAL OCEAN SERVICE'S        
     QUALITY CONTROL OR QUALITY ASSURANCE PROCEDURES AND DOES NOT MEET         
     THE CRITERIA AND STANDARDS OF OFFICIAL NATIONAL OCEAN SERVICE             
     DATA.  IT IS RELEASED FOR LIMITED PUBLIC USE AS PRELIMINARY DATA TO       
     BE USED ONLY WITH APPROPRIATE CAUTION.                                    

************************      PRELIMINARY DATA      ************************** 


       CD   -   Calendar date
       T    -   Time
       TZ   -   Timezone
       PW   -   Predicted water level (feet above MLLW)
       OW   -   Observed water level (feet above MLLW)
       WS   -   Wind speed (knots)
       WD   -   Wind direction (degrees true)
       WG   -   Wind gust (knots)
       AT   -   Air temperature (degrees farenheit)
       WT   -   Water temperature (degrees farenheit)
       AP   -   Air pressure (millibars)
       SA   -   Salinty (PSU - Practical Salinity Units)
       SG   -   Specific gravity
       RH   -   Relative humidity
       AG   -   Air gap (feet)
       VI   -   Visibility (nautical miles)

       ** NOTE **
       A variable that has its data fields filled with "9"s, indicates that
       data was not collected for that sample period.
       **********


STATION NAME: Annapolis (8575512)
****************************************************************************************************
    CD       T    TZ    PW     OW    WS   WD   WG    AT    WT    AP    SA    SG     RH    AG   VI
****************************************************************************************************
2019/10/13 09:00 EDT    0.81   2.42 -999 -999 -999  56.8 -99.9 1019.5 -9.9 -9.999 -99.9 -99.99 -9.99
2019/10/13 09:06 EDT    0.78   2.40 -999 -999 -999  57.1 -99.9 1019.5 -9.9 -9.999 -99.9 -99.99 -9.99
2019/10/13 09:12 EDT    0.76   2.37 -999 -999 -999  57.3 -99.9 1019.6 -9.9 -9.999 -99.9 -99.99 -9.99
2019/10/13 09:18 EDT    0.73   2.36 -999 -999 -999  57.3 -99.9 1019.2 -9.9 -9.999 -99.9 -99.99 -9.99
2019/10/13 09:24 EDT    0.71   2.35 -999 -999 -999  57.5 -99.9 1019.3 -9.9 -9.999 -99.9 -99.99 -9.99
2019/10/13 09:30 EDT    0.68   2.32 -999 -999 -999  57.4 -99.9 1019.6 -9.9 -9.999 -99.9 -99.99 -9.99
2019/10/13 09:36 EDT    0.66   2.29 -999 -999 -999  57.5 -99.9 1019.5 -9.9 -9.999 -99.9 -99.99 -9.99
2019/10/13 09:42 EDT    0.64   2.26 -999 -999 -999  57.7 -99.9 1019.6 -9.9 -9.999 -99.9 -99.99 -9.99
2019/10/13 09:48 EDT    0.61   2.24 -999 -999 -999  57.7 -99.9 1019.6 -9.9 -9.999 -99.9 -99.99 -9.99
2019/10/13 09:54 EDT    0.59   2.22 -999 -999 -999  57.7 -99.9 1019.6 -9.9 -9.999 -99.9 -99.99 -9.99
2019/10/13 10:00 EDT    0.57   2.18 -999 -999 -999  57.7 -99.9 1019.7 -9.9 -9.999 -99.9 -99.99 -9.99
2019/10/13 10:06 EDT    0.55   2.18 -999 -999 -999  58.2 -99.9 1019.7 -9.9 -9.999 -99.9 -99.99 -9.99
2019/10/13 10:12 EDT    0.52   2.15 -999 -999 -999  58.2 -99.9 1019.4 -9.9 -9.999 -99.9 -99.99 -9.99
2019/10/13 10:18 EDT    0.50   2.13 -999 -999 -999  58.1 -99.9 1019.6 -9.9 -9.999 -99.9 -99.99 -9.99
2019/10/13 10:24 EDT    0.48   2.12 -999 -999 -999  58.4 -99.9 1019.7 -9.9 -9.999 -99.9 -99.99 -9.99
2019/10/13 10:30 EDT    0.47   2.09 -999 -999 -999  58.6 -99.9 1019.5 -9.9 -9.999 -99.9 -99.99 -9.99
2019/10/13 10:36 EDT    0.45   2.07 -999 -999 -999  58.8 -99.9 1019.5 -9.9 -9.999 -99.9 -99.99 -9.99
2019/10/13 10:42 EDT    0.43   2.06 -999 -999 -999  59.0 -99.9 1019.4 -9.9 -9.999 -99.9 -99.99 -9.99
2019/10/13 10:48 EDT    0.42   2.05 -999 -999 -999  59.3 -99.9 1019.5 -9.9 -9.999 -99.9 -99.99 -9.99
2019/10/13 10:54 EDT    0.40   2.05 -999 -999 -999  59.5 -99.9 1019.6 -9.9 -9.999 -99.9 -99.99 -9.99
2019/10/13 11:00 EDT    0.39   2.03 -999 -999 -999  59.3 -99.9 1019.3 -9.9 -9.999 -99.9 -99.99 -9.99
2019/10/13 11:06 EDT    0.38   2.02 -999 -999 -999  59.6 -99.9 1018.9 -9.9 -9.999 -99.9 -99.99 -9.99
2019/10/13 11:12 EDT    0.37   2.01 -999 -999 -999  59.4 -99.9 1018.9 -9.9 -9.999 -99.9 -99.99 -9.99
2019/10/13 11:18 EDT    0.36   2.00 -999 -999 -999  59.2 -99.9 1018.9 -9.9 -9.999 -99.9 -99.99 -9.99
2019/10/13 11:24 EDT    0.35   2.00 -999 -999 -999  59.5 -99.9 1019.0 -9.9 -9.999 -99.9 -99.99 -9.99
2019/10/13 11:30 EDT    0.35   2.00 -999 -999 -999  59.5 -99.9 1019.1 -9.9 -9.999 -99.9 -99.99 -9.99
2019/10/13 11:36 EDT    0.35   1.98 -999 -999 -999  60.1 -99.9 1019.1 -9.9 -9.999 -99.9 -99.99 -9.99
2019/10/13 11:42 EDT    0.34   1.97 -999 -999 -999  60.4 -99.9 1019.0 -9.9 -9.999 -99.9 -99.99 -9.99
2019/10/13 11:48 EDT    0.34   1.96 -999 -999 -999  60.7 -99.9 1019.0 -9.9 -9.999 -99.9 -99.99 -9.99
2019/10/13 11:54 EDT    0.35   1.97 -999 -999 -999  61.1 -99.9 1019.0 -9.9 -9.999 -99.9 -99.99 -9.99
2019/10/13 12:00 EDT    0.35   1.97 -999 -999 -999  61.8 -99.9 1018.8 -9.9 -9.999 -99.9 -99.99 -9.99
2019/10/13 12:06 EDT    0.35   1.97 -999 -999 -999  61.6 -99.9 1018.8 -9.9 -9.999 -99.9 -99.99 -9.99
2019/10/13 12:12 EDT    0.36   1.98 -999 -999 -999  60.9 -99.9 1018.6 -9.9 -9.999 -99.9 -99.99 -9.99
2019/10/13 12:18 EDT    0.37   1.98 -999 -999 -999  60.8 -99.9 1018.6 -9.9 -9.999 -99.9 -99.99 -9.99
2019/10/13 12:24 EDT    0.38   1.97 -999 -999 -999  62.1 -99.9 1018.7 -9.9 -9.999 -99.9 -99.99 -9.99
2019/10/13 12:30 EDT    0.39   1.97 -999 -999 -999  61.3 -99.9 1018.4 -9.9 -9.999 -99.9 -99.99 -9.99
2019/10/13 12:36 EDT    0.40   1.97 -999 -999 -999  62.5 -99.9 1018.6 -9.9 -9.999 -99.9 -99.99 -9.99
2019/10/13 12:42 EDT    0.42   1.98 -999 -999 -999  62.1 -99.9 1018.5 -9.9 -9.999 -99.9 -99.99 -9.99
2019/10/13 12:48 EDT    0.43   1.99 -999 -999 -999  62.1 -99.9 1018.3 -9.9 -9.999 -99.9 -99.99 -9.99
2019/10/13 12:54 EDT    0.45   2.00 -999 -999 -999  63.0 -99.9 1018.3 -9.9 -9.999 -99.9 -99.99 -9.99
2019/10/13 13:00 EDT    0.47   2.01 -999 -999 -999  62.8 -99.9 1018.0 -9.9 -9.999 -99.9 -99.99 -9.99
2019/10/13 13:06 EDT    0.49   2.03 -999 -999 -999  62.3 -99.9 1017.9 -9.9 -9.999 -99.9 -99.99 -9.99
2019/10/13 13:12 EDT    0.51   2.05 -999 -999 -999  62.6 -99.9 1017.9 -9.9 -9.999 -99.9 -99.99 -9.99
2019/10/13 13:18 EDT    0.53   2.07 -999 -999 -999  62.7 -99.9 1018.0 -9.9 -9.999 -99.9 -99.99 -9.99
2019/10/13 13:24 EDT    0.55   2.09 -999 -999 -999  62.8 -99.9 1018.0 -9.9 -9.999 -99.9 -99.99 -9.99
2019/10/13 13:30 EDT    0.57   2.09 -999 -999 -999  63.2 -99.9 1018.1 -9.9 -9.999 -99.9 -99.99 -9.99
2019/10/13 13:36 EDT    0.60   2.10 -999 -999 -999  62.8 -99.9 1017.9 -9.9 -9.999 -99.9 -99.99 -9.99
2019/10/13 13:42 EDT    0.62   2.11 -999 -999 -999  62.6 -99.9 1017.6 -9.9 -9.999 -99.9 -99.99 -9.99
2019/10/13 13:48 EDT    0.64   2.14 -999 -999 -999  63.1 -99.9 1017.6 -9.9 -9.999 -99.9 -99.99 -9.99
2019/10/13 13:54 EDT    0.67   2.18 -999 -999 -999  62.9 -99.9 1017.7 -9.9 -9.999 -99.9 -99.99 -9.99
2019/10/13 14:00 EDT    0.69   2.19 -999 -999 -999  62.5 -99.9 1017.6 -9.9 -9.999 -99.9 -99.99 -9.99
2019/10/13 14:06 EDT    0.72   2.21 -999 -999 -999  62.4 -99.9 1017.4 -9.9 -9.999 -99.9 -99.99 -9.99
2019/10/13 14:12 EDT    0.74   2.22 -999 -999 -999  62.0 -99.9 1017.5 -9.9 -9.999 -99.9 -99.99 -9.99
2019/10/13 14:18 EDT    0.77   2.24 -999 -999 -999  61.7 -99.9 1017.3 -9.9 -9.999 -99.9 -99.99 -9.99
2019/10/13 14:24 EDT    0.79   2.26 -999 -999 -999  61.6 -99.9 1017.4 -9.9 -9.999 -99.9 -99.99 -9.99
2019/10/13 14:30 EDT    0.82   2.28 -999 -999 -999  61.2 -99.9 1017.3 -9.9 -9.999 -99.9 -99.99 -9.99
2019/10/13 14:36 EDT    0.84   2.30 -999 -999 -999  61.1 -99.9 1017.3 -9.9 -9.999 -99.9 -99.99 -9.99
2019/10/13 14:42 EDT    0.87   2.32 -999 -999 -999  61.2 -99.9 1017.2 -9.9 -9.999 -99.9 -99.99 -9.99
2019/10/13 14:48 EDT    0.90   2.34 -999 -999 -999  61.3 -99.9 1017.0 -9.9 -9.999 -99.9 -99.99 -9.99
2019/10/13 14:54 EDT    0.92   2.36 -999 -999 -999  61.5 -99.9 1016.9 -9.9 -9.999 -99.9 -99.99 -9.99
2019/10/13 15:00 EDT    0.95   2.39 -999 -999 -999  61.8 -99.9 1016.8 -9.9 -9.999 -99.9 -99.99 -9.99
2019/10/13 15:06 EDT    0.97   2.41 -999 -999 -999  61.4 -99.9 1016.8 -9.9 -9.999 -99.9 -99.99 -9.99
2019/10/13 15:12 EDT    1.00   2.42 -999 -999 -999  60.9 -99.9 1016.7 -9.9 -9.999 -99.9 -99.99 -9.99
2019/10/13 15:18 EDT    1.02   2.44 -999 -999 -999  60.6 -99.9 1016.6 -9.9 -9.999 -99.9 -99.99 -9.99
2019/10/13 15:24 EDT    1.05   2.46 -999 -999 -999  60.4 -99.9 1016.8 -9.9 -9.999 -99.9 -99.99 -9.99
2019/10/13 15:30 EDT    1.07   2.46 -999 -999 -999  60.5 -99.9 1016.8 -9.9 -9.999 -99.9 -99.99 -9.99
2019/10/13 15:36 EDT    1.10   2.49 -999 -999 -999  60.6 -99.9 1017.4 -9.9 -9.999 -99.9 -99.99 -9.99
2019/10/13 15:42 EDT    1.12   2.50 -999 -999 -999  60.6 -99.9 1016.8 -9.9 -9.999 -99.9 -99.99 -9.99
2019/10/13 15:48 EDT    1.14   2.51 -999 -999 -999  60.9 -99.9 1016.8 -9.9 -9.999 -99.9 -99.99 -9.99
2019/10/13 15:54 EDT    1.17   2.56 -999 -999 -999  60.8 -99.9 1016.6 -9.9 -9.999 -99.9 -99.99 -9.99
2019/10/13 16:00 EDT    1.19   2.57 -999 -999 -999  60.6 -99.9 1016.7 -9.9 -9.999 -99.9 -99.99 -9.99
2019/10/13 16:06 EDT    1.21   2.60 -999 -999 -999  60.6 -99.9 1016.4 -9.9 -9.999 -99.9 -99.99 -9.99
2019/10/13 16:12 EDT    1.23   2.62 -999 -999 -999  60.3 -99.9 1016.5 -9.9 -9.999 -99.9 -99.99 -9.99
2019/10/13 16:18 EDT    1.25   2.61 -999 -999 -999  59.9 -99.9 1016.8 -9.9 -9.999 -99.9 -99.99 -9.99
2019/10/13 16:24 EDT    1.27   2.62 -999 -999 -999  58.9 -99.9 1016.7 -9.9 -9.999 -99.9 -99.99 -9.99
2019/10/13 16:30 EDT    1.29   2.64 -999 -999 -999  58.1 -99.9 1016.8 -9.9 -9.999 -99.9 -99.99 -9.99
2019/10/13 16:36 EDT    1.31   2.64 -999 -999 -999  58.0 -99.9 1016.8 -9.9 -9.999 -99.9 -99.99 -9.99
2019/10/13 16:42 EDT    1.33   2.67 -999 -999 -999  57.3 -99.9 1016.8 -9.9 -9.999 -99.9 -99.99 -9.99
2019/10/13 16:48 EDT    1.35   2.69 -999 -999 -999  57.4 -99.9 1016.7 -9.9 -9.999 -99.9 -99.99 -9.99
2019/10/13 16:54 EDT    1.36   2.69 -999 -999 -999  57.3 -99.9 1016.7 -9.9 -9.999 -99.9 -99.99 -9.99
2019/10/13 17:00 EDT    1.38   2.68 -999 -999 -999  56.1 -99.9 1016.5 -9.9 -9.999 -99.9 -99.99 -9.99
2019/10/13 17:06 EDT    1.39   2.69 -999 -999 -999  56.4 -99.9 1016.3 -9.9 -9.999 -99.9 -99.99 -9.99
2019/10/13 17:12 EDT    1.40   2.71 -999 -999 -999  56.2 -99.9 1016.2 -9.9 -9.999 -99.9 -99.99 -9.99
2019/10/13 17:18 EDT    1.41   2.71 -999 -999 -999  56.0 -99.9 1016.3 -9.9 -9.999 -99.9 -99.99 -9.99
2019/10/13 17:24 EDT    1.42   2.70 -999 -999 -999  56.0 -99.9 1016.3 -9.9 -9.999 -99.9 -99.99 -9.99
2019/10/13 17:30 EDT    1.43   2.71 -999 -999 -999  55.8 -99.9 1016.4 -9.9 -9.999 -99.9 -99.99 -9.99
2019/10/13 17:36 EDT    1.44   2.70 -999 -999 -999  56.1 -99.9 1016.2 -9.9 -9.999 -99.9 -99.99 -9.99
2019/10/13 17:42 EDT    1.45   2.69 -999 -999 -999  55.9 -99.9 1016.2 -9.9 -9.999 -99.9 -99.99 -9.99
2019/10/13 17:48 EDT    1.45   2.69 -999 -999 -999  55.7 -99.9 1016.3 -9.9 -9.999 -99.9 -99.99 -9.99
2019/10/13 17:54 EDT    1.45   2.71 -999 -999 -999  56.0 -99.9 1016.3 -9.9 -9.999 -99.9 -99.99 -9.99
2019/10/13 18:00 EDT    1.46   2.70 -999 -999 -999  56.2 -99.9 1016.3 -9.9 -9.999 -99.9 -99.99 -9.99
2019/10/13 18:06 EDT    1.46   2.69 -999 -999 -999  56.7 -99.9 1016.2 -9.9 -9.999 -99.9 -99.99 -9.99
2019/10/13 18:12 EDT    1.45   2.69 -999 -999 -999  56.6 -99.9 1016.1 -9.9 -9.999 -99.9 -99.99 -9.99
2019/10/13 18:18 EDT    1.45   2.67 -999 -999 -999  56.9 -99.9 1016.3 -9.9 -9.999 -99.9 -99.99 -9.99
2019/10/13 18:24 EDT    1.45   2.67 -999 -999 -999  57.0 -99.9 1016.3 -9.9 -9.999 -99.9 -99.99 -9.99
2019/10/13 18:30 EDT    1.44   2.64 -999 -999 -999  57.2 -99.9 1016.2 -9.9 -9.999 -99.9 -99.99 -9.99
2019/10/13 18:36 EDT    1.44   2.64 -999 -999 -999  57.6 -99.9 1016.2 -9.9 -9.999 -99.9 -99.99 -9.99
2019/10/13 18:42 EDT    1.43   2.64 -999 -999 -999  57.4 -99.9 1016.4 -9.9 -9.999 -99.9 -99.99 -9.99
2019/10/13 18:48 EDT    1.42   2.61 -999 -999 -999  57.4 -99.9 1016.4 -9.9 -9.999 -99.9 -99.99 -9.99
2019/10/13 18:54 EDT    1.41   2.62 -999 -999 -999  57.9 -99.9 1016.3 -9.9 -9.999 -99.9 -99.99 -9.99
2019/10/13 19:00 EDT    1.40   2.60 -999 -999 -999  57.9 -99.9 1016.2 -9.9 -9.999 -99.9 -99.99 -9.99
2019/10/13 19:06 EDT    1.39   2.59 -999 -999 -999  57.7 -99.9 1016.1 -9.9 -9.999 -99.9 -99.99 -9.99
2019/10/13 19:12 EDT    1.38   2.56 -999 -999 -999  57.8 -99.9 1016.0 -9.9 -9.999 -99.9 -99.99 -9.99
2019/10/13 19:18 EDT    1.36   2.53 -999 -999 -999  58.1 -99.9 1016.1 -9.9 -9.999 -99.9 -99.99 -9.99
2019/10/13 19:24 EDT    1.35   2.52 -999 -999 -999  57.9 -99.9 1016.2 -9.9 -9.999 -99.9 -99.99 -9.99
2019/10/13 19:30 EDT    1.33   2.50 -999 -999 -999  58.0 -99.9 1016.1 -9.9 -9.999 -99.9 -99.99 -9.99
2019/10/13 19:36 EDT    1.32   2.49 -999 -999 -999  58.1 -99.9 1016.1 -9.9 -9.999 -99.9 -99.99 -9.99
2019/10/13 19:42 EDT    1.30   2.44 -999 -999 -999  58.0 -99.9 1016.2 -9.9 -9.999 -99.9 -99.99 -9.99
2019/10/13 19:48 EDT    1.28   2.42 -999 -999 -999  58.4 -99.9 1016.2 -9.9 -9.999 -99.9 -99.99 -9.99
2019/10/13 19:54 EDT    1.26   2.42 -999 -999 -999  58.6 -99.9 1016.1 -9.9 -9.999 -99.9 -99.99 -9.99
2019/10/13 20:00 EDT    1.25   2.39 -999 -999 -999  58.4 -99.9 1016.1 -9.9 -9.999 -99.9 -99.99 -9.99
2019/10/13 20:06 EDT    1.23   2.38 -999 -999 -999  58.5 -99.9 1016.0 -9.9 -9.999 -99.9 -99.99 -9.99
2019/10/13 20:12 EDT    1.21   2.35 -999 -999 -999  58.3 -99.9 1016.0 -9.9 -9.999 -99.9 -99.99 -9.99
2019/10/13 20:18 EDT    1.19   2.33 -999 -999 -999  58.4 -99.9 1015.9 -9.9 -9.999 -99.9 -99.99 -9.99
2019/10/13 20:24 EDT    1.17   2.30 -999 -999 -999  58.5 -99.9 1015.9 -9.9 -9.999 -99.9 -99.99 -9.99
2019/10/13 20:30 EDT    1.15   2.28 -999 -999 -999  58.7 -99.9 1015.9 -9.9 -9.999 -99.9 -99.99 -9.99
2019/10/13 20:36 EDT    1.13   2.25 -999 -999 -999  58.9 -99.9 1015.8 -9.9 -9.999 -99.9 -99.99 -9.99
2019/10/13 20:42 EDT    1.10   2.24 -999 -999 -999  59.1 -99.9 1015.8 -9.9 -9.999 -99.9 -99.99 -9.99
2019/10/13 20:48 EDT    1.08   2.23 -999 -999 -999  59.0 -99.9 1015.6 -9.9 -9.999 -99.9 -99.99 -9.99
2019/10/13 20:54 EDT    1.06   2.22 -999 -999 -999  59.0 -99.9 1015.9 -9.9 -9.999 -99.9 -99.99 -9.99
2019/10/13 21:00 EDT    1.04   2.18 -999 -999 -999  59.3 -99.9 1015.7 -9.9 -9.999 -99.9 -99.99 -9.99
2019/10/13 21:06 EDT    1.02   2.16 -999 -999 -999  59.4 -99.9 1015.7 -9.9 -9.999 -99.9 -99.99 -9.99
2019/10/13 21:12 EDT    0.99   2.13 -999 -999 -999  59.5 -99.9 1015.7 -9.9 -9.999 -99.9 -99.99 -9.99
2019/10/13 21:18 EDT    0.97   2.11 -999 -999 -999  59.4 -99.9 1015.7 -9.9 -9.999 -99.9 -99.99 -9.99
2019/10/13 21:24 EDT    0.95   2.09 -999 -999 -999  59.5 -99.9 1015.8 -9.9 -9.999 -99.9 -99.99 -9.99
2019/10/13 21:30 EDT    0.93   2.07 -999 -999 -999  59.7 -99.9 1015.7 -9.9 -9.999 -99.9 -99.99 -9.99
2019/10/13 21:36 EDT    0.90   2.04 -999 -999 -999  59.8 -99.9 1015.7 -9.9 -9.999 -99.9 -99.99 -9.99
2019/10/13 21:42 EDT    0.88   2.01 -999 -999 -999  59.9 -99.9 1015.7 -9.9 -9.999 -99.9 -99.99 -9.99
2019/10/13 21:48 EDT    0.86   1.99 -999 -999 -999  59.9 -99.9 1015.5 -9.9 -9.999 -99.9 -99.99 -9.99
2019/10/13 21:54 EDT    0.84   1.97 -999 -999 -999  60.1 -99.9 1015.5 -9.9 -9.999 -99.9 -99.99 -9.99
2019/10/13 22:00 EDT    0.82   1.95 -999 -999 -999  60.1 -99.9 1015.5 -9.9 -9.999 -99.9 -99.99 -9.99
2019/10/13 22:06 EDT    0.79   1.93 -999 -999 -999  59.9 -99.9 1015.7 -9.9 -9.999 -99.9 -99.99 -9.99
2019/10/13 22:12 EDT    0.77   1.90 -999 -999 -999  60.0 -99.9 1015.7 -9.9 -9.999 -99.9 -99.99 -9.99
2019/10/13 22:18 EDT    0.75   1.87 -999 -999 -999  60.1 -99.9 1015.7 -9.9 -9.999 -99.9 -99.99 -9.99
2019/10/13 22:24 EDT    0.73   1.86 -999 -999 -999  60.0 -99.9 1015.7 -9.9 -9.999 -99.9 -99.99 -9.99
2019/10/13 22:30 EDT    0.71   1.84 -999 -999 -999  59.9 -99.9 1015.6 -9.9 -9.999 -99.9 -99.99 -9.99
2019/10/13 22:36 EDT    0.69   1.83 -999 -999 -999  59.9 -99.9 1015.6 -9.9 -9.999 -99.9 -99.99 -9.99
2019/10/13 22:42 EDT    0.67   1.81 -999 -999 -999  59.9 -99.9 1015.5 -9.9 -9.999 -99.9 -99.99 -9.99
2019/10/13 22:48 EDT    0.65   1.80 -999 -999 -999  60.2 -99.9 1015.3 -9.9 -9.999 -99.9 -99.99 -9.99
2019/10/13 22:54 EDT    0.63   1.78 -999 -999 -999  60.0 -99.9 1015.4 -9.9 -9.999 -99.9 -99.99 -9.99
2019/10/13 23:00 EDT    0.62   1.75 -999 -999 -999  60.0 -99.9 1015.4 -9.9 -9.999 -99.9 -99.99 -9.99
2019/10/13 23:06 EDT    0.60   1.73 -999 -999 -999  60.1 -99.9 1015.5 -9.9 -9.999 -99.9 -99.99 -9.99
2019/10/13 23:12 EDT    0.59   1.71 -999 -999 -999  60.2 -99.9 1015.5 -9.9 -9.999 -99.9 -99.99 -9.99
2019/10/13 23:18 EDT    0.57   1.70 -999 -999 -999  60.5 -99.9 1015.5 -9.9 -9.999 -99.9 -99.99 -9.99
2019/10/13 23:24 EDT    0.56   1.68 -999 -999 -999  60.3 -99.9 1015.4 -9.9 -9.999 -99.9 -99.99 -9.99
2019/10/13 23:30 EDT    0.55   1.67 -999 -999 -999  60.4 -99.9 1015.4 -9.9 -9.999 -99.9 -99.99 -9.99
2019/10/13 23:36 EDT    0.54   1.68 -999 -999 -999  60.3 -99.9 1015.5 -9.9 -9.999 -99.9 -99.99 -9.99
2019/10/13 23:42 EDT    0.53   1.67 -999 -999 -999  60.5 -99.9 1015.6 -9.9 -9.999 -99.9 -99.99 -9.99
2019/10/13 23:48 EDT    0.53   1.66 -999 -999 -999  60.6 -99.9 1015.7 -9.9 -9.999 -99.9 -99.99 -9.99
2019/10/13 23:54 EDT    0.52   1.66 -999 -999 -999  60.5 -99.9 1015.7 -9.9 -9.999 -99.9 -99.99 -9.99
2019/10/14 00:00 EDT    0.52   1.65 -999 -999 -999  60.5 -99.9 1015.7 -9.9 -9.999 -99.9 -99.99 -9.99
2019/10/14 00:06 EDT    0.52   1.65 -999 -999 -999  60.5 -99.9 1015.6 -9.9 -9.999 -99.9 -99.99 -9.99
2019/10/14 00:12 EDT    0.52   1.66 -999 -999 -999  60.6 -99.9 1015.5 -9.9 -9.999 -99.9 -99.99 -9.99
2019/10/14 00:18 EDT    0.52   1.65 -999 -999 -999  60.6 -99.9 1015.6 -9.9 -9.999 -99.9 -99.99 -9.99
2019/10/14 00:24 EDT    0.52   1.65 -999 -999 -999  60.7 -99.9 1015.6 -9.9 -9.999 -99.9 -99.99 -9.99
2019/10/14 00:30 EDT    0.52   1.66 -999 -999 -999  60.7 -99.9 1015.5 -9.9 -9.999 -99.9 -99.99 -9.99
2019/10/14 00:36 EDT    0.53   1.66 -999 -999 -999  60.6 -99.9 1015.5 -9.9 -9.999 -99.9 -99.99 -9.99
2019/10/14 00:42 EDT    0.54   1.68 -999 -999 -999  60.6 -99.9 1015.4 -9.9 -9.999 -99.9 -99.99 -9.99
2019/10/14 00:48 EDT    0.55   1.68 -999 -999 -999  60.6 -99.9 1015.3 -9.9 -9.999 -99.9 -99.99 -9.99
2019/10/14 00:54 EDT    0.56   1.69 -999 -999 -999  60.4 -99.9 1015.2 -9.9 -9.999 -99.9 -99.99 -9.99
2019/10/14 01:00 EDT    0.57   1.70 -999 -999 -999  60.4 -99.9 1015.1 -9.9 -9.999 -99.9 -99.99 -9.99
2019/10/14 01:06 EDT    0.58   1.70 -999 -999 -999  60.1 -99.9 1015.2 -9.9 -9.999 -99.9 -99.99 -9.99
2019/10/14 01:12 EDT    0.59   1.71 -999 -999 -999  60.0 -99.9 1014.9 -9.9 -9.999 -99.9 -99.99 -9.99
2019/10/14 01:18 EDT    0.61   1.72 -999 -999 -999  59.7 -99.9 1014.8 -9.9 -9.999 -99.9 -99.99 -9.99
2019/10/14 01:24 EDT    0.62   1.73 -999 -999 -999  59.8 -99.9 1014.8 -9.9 -9.999 -99.9 -99.99 -9.99
2019/10/14 01:30 EDT    0.64   1.76 -999 -999 -999  59.8 -99.9 1014.9 -9.9 -9.999 -99.9 -99.99 -9.99
2019/10/14 01:36 EDT    0.66   1.78 -999 -999 -999  59.4 -99.9 1014.8 -9.9 -9.999 -99.9 -99.99 -9.99
2019/10/14 01:42 EDT    0.68   1.79 -999 -999 -999  59.4 -99.9 1014.8 -9.9 -9.999 -99.9 -99.99 -9.99
2019/10/14 01:48 EDT    0.70   1.80 -999 -999 -999  59.2 -99.9 1014.7 -9.9 -9.999 -99.9 -99.99 -9.99
2019/10/14 01:54 EDT    0.72   1.82 -999 -999 -999  59.1 -99.9 1014.6 -9.9 -9.999 -99.9 -99.99 -9.99
2019/10/14 02:00 EDT    0.74   1.84 -999 -999 -999  59.0 -99.9 1014.4 -9.9 -9.999 -99.9 -99.99 -9.99
2019/10/14 02:06 EDT    0.76   1.86 -999 -999 -999  58.8 -99.9 1014.5 -9.9 -9.999 -99.9 -99.99 -9.99
2019/10/14 02:12 EDT    0.78   1.88 -999 -999 -999  58.9 -99.9 1014.5 -9.9 -9.999 -99.9 -99.99 -9.99
2019/10/14 02:18 EDT    0.80   1.90 -999 -999 -999  58.9 -99.9 1014.5 -9.9 -9.999 -99.9 -99.99 -9.99
2019/10/14 02:24 EDT    0.82   1.92 -999 -999 -999  59.0 -99.9 1014.5 -9.9 -9.999 -99.9 -99.99 -9.99
2019/10/14 02:30 EDT    0.84   1.94 -999 -999 -999  58.8 -99.9 1014.5 -9.9 -9.999 -99.9 -99.99 -9.99
2019/10/14 02:36 EDT    0.86   1.96 -999 -999 -999  58.7 -99.9 1014.5 -9.9 -9.999 -99.9 -99.99 -9.99
2019/10/14 02:42 EDT    0.88   1.97 -999 -999 -999  58.6 -99.9 1014.4 -9.9 -9.999 -99.9 -99.99 -9.99
2019/10/14 02:48 EDT    0.90   1.99 -999 -999 -999  58.5 -99.9 1014.4 -9.9 -9.999 -99.9 -99.99 -9.99
2019/10/14 02:54 EDT    0.93   2.01 -999 -999 -999  58.3 -99.9 1014.3 -9.9 -9.999 -99.9 -99.99 -9.99
2019/10/14 03:00 EDT    0.95   2.02 -999 -999 -999  57.9 -99.9 1014.3 -9.9 -9.999 -99.9 -99.99 -9.99
2019/10/14 03:06 EDT    0.97   2.03 -999 -999 -999  57.6 -99.9 1014.3 -9.9 -9.999 -99.9 -99.99 -9.99
2019/10/14 03:12 EDT    0.99   2.04 -999 -999 -999  57.5 -99.9 1014.3 -9.9 -9.999 -99.9 -99.99 -9.99
2019/10/14 03:18 EDT    1.01   2.05 -999 -999 -999  57.5 -99.9 1014.1 -9.9 -9.999 -99.9 -99.99 -9.99
2019/10/14 03:24 EDT    1.03   2.08 -999 -999 -999  57.6 -99.9 1014.1 -9.9 -9.999 -99.9 -99.99 -9.99
2019/10/14 03:30 EDT    1.05   2.09 -999 -999 -999  57.7 -99.9 1014.1 -9.9 -9.999 -99.9 -99.99 -9.99
2019/10/14 03:36 EDT    1.07   2.12 -999 -999 -999  57.8 -99.9 1013.9 -9.9 -9.999 -99.9 -99.99 -9.99
2019/10/14 03:42 EDT    1.09   2.14 -999 -999 -999  58.0 -99.9 1013.8 -9.9 -9.999 -99.9 -99.99 -9.99
2019/10/14 03:48 EDT    1.11   2.16 -999 -999 -999  58.0 -99.9 1014.0 -9.9 -9.999 -99.9 -99.99 -9.99
2019/10/14 03:54 EDT    1.13   2.18 -999 -999 -999  57.9 -99.9 1014.1 -9.9 -9.999 -99.9 -99.99 -9.99
2019/10/14 04:00 EDT    1.15   2.19 -999 -999 -999  57.9 -99.9 1014.2 -9.9 -9.999 -99.9 -99.99 -9.99
2019/10/14 04:06 EDT    1.16   2.21 -999 -999 -999  57.8 -99.9 1014.2 -9.9 -9.999 -99.9 -99.99 -9.99
2019/10/14 04:12 EDT    1.18   2.23 -999 -999 -999  57.8 -99.9 1014.2 -9.9 -9.999 -99.9 -99.99 -9.99
2019/10/14 04:18 EDT    1.20   2.24 -999 -999 -999  57.6 -99.9 1014.1 -9.9 -9.999 -99.9 -99.99 -9.99
2019/10/14 04:24 EDT    1.21   2.25 -999 -999 -999  57.6 -99.9 1014.1 -9.9 -9.999 -99.9 -99.99 -9.99
2019/10/14 04:30 EDT    1.23   2.24 -999 -999 -999  57.8 -99.9 1014.0 -9.9 -9.999 -99.9 -99.99 -9.99
2019/10/14 04:36 EDT    1.25   2.25 -999 -999 -999  57.2 -99.9 1013.9 -9.9 -9.999 -99.9 -99.99 -9.99
2019/10/14 04:42 EDT    1.26   2.26 -999 -999 -999  57.2 -99.9 1013.9 -9.9 -9.999 -99.9 -99.99 -9.99
2019/10/14 04:48 EDT    1.27   2.28 -999 -999 -999  56.9 -99.9 1014.0 -9.9 -9.999 -99.9 -99.99 -9.99
2019/10/14 04:54 EDT    1.29   2.30 -999 -999 -999  56.8 -99.9 1014.1 -9.9 -9.999 -99.9 -99.99 -9.99
2019/10/14 05:00 EDT    1.30   2.31 -999 -999 -999  56.6 -99.9 1014.1 -9.9 -9.999 -99.9 -99.99 -9.99
2019/10/14 05:06 EDT    1.31   2.32 -999 -999 -999  56.7 -99.9 1014.2 -9.9 -9.999 -99.9 -99.99 -9.99
2019/10/14 05:12 EDT    1.32   2.33 -999 -999 -999  56.7 -99.9 1014.2 -9.9 -9.999 -99.9 -99.99 -9.99
2019/10/14 05:18 EDT    1.33   2.34 -999 -999 -999  56.4 -99.9 1014.3 -9.9 -9.999 -99.9 -99.99 -9.99
2019/10/14 05:24 EDT    1.34   2.34 -999 -999 -999  55.8 -99.9 1014.4 -9.9 -9.999 -99.9 -99.99 -9.99
2019/10/14 05:30 EDT    1.34   2.34 -999 -999 -999  55.9 -99.9 1014.4 -9.9 -9.999 -99.9 -99.99 -9.99
2019/10/14 05:36 EDT    1.35   2.34 -999 -999 -999  56.4 -99.9 1014.4 -9.9 -9.999 -99.9 -99.99 -9.99
2019/10/14 05:42 EDT    1.35   2.33 -999 -999 -999  56.2 -99.9 1014.4 -9.9 -9.999 -99.9 -99.99 -9.99
2019/10/14 05:48 EDT    1.35   2.32 -999 -999 -999  55.7 -99.9 1014.4 -9.9 -9.999 -99.9 -99.99 -9.99
2019/10/14 05:54 EDT    1.36   2.32 -999 -999 -999  55.7 -99.9 1014.5 -9.9 -9.999 -99.9 -99.99 -9.99
2019/10/14 06:00 EDT    1.36   2.32 -999 -999 -999  55.7 -99.9 1014.6 -9.9 -9.999 -99.9 -99.99 -9.99
2019/10/14 06:06 EDT    1.36   2.31 -999 -999 -999  55.7 -99.9 1014.7 -9.9 -9.999 -99.9 -99.99 -9.99
2019/10/14 06:12 EDT    1.35   2.31 -999 -999 -999  55.8 -99.9 1014.7 -9.9 -9.999 -99.9 -99.99 -9.99
2019/10/14 06:18 EDT    1.35   2.31 -999 -999 -999  56.1 -99.9 1014.8 -9.9 -9.999 -99.9 -99.99 -9.99
2019/10/14 06:24 EDT    1.34   2.30 -999 -999 -999  56.2 -99.9 1015.1 -9.9 -9.999 -99.9 -99.99 -9.99
2019/10/14 06:30 EDT    1.34   2.29 -999 -999 -999  56.3 -99.9 1015.2 -9.9 -9.999 -99.9 -99.99 -9.99
2019/10/14 06:36 EDT    1.33   2.27 -999 -999 -999  56.4 -99.9 1015.3 -9.9 -9.999 -99.9 -99.99 -9.99
2019/10/14 06:42 EDT    1.32   2.26 -999 -999 -999  56.5 -99.9 1015.4 -9.9 -9.999 -99.9 -99.99 -9.99
2019/10/14 06:48 EDT    1.31   2.24 -999 -999 -999  56.6 -99.9 1015.4 -9.9 -9.999 -99.9 -99.99 -9.99
2019/10/14 06:54 EDT    1.30   2.22 -999 -999 -999  56.6 -99.9 1015.5 -9.9 -9.999 -99.9 -99.99 -9.99
2019/10/14 07:00 EDT    1.29   2.21 -999 -999 -999  56.3 -99.9 1015.6 -9.9 -9.999 -99.9 -99.99 -9.99
2019/10/14 07:06 EDT    1.27   2.19 -999 -999 -999  55.8 -99.9 1015.6 -9.9 -9.999 -99.9 -99.99 -9.99
2019/10/14 07:12 EDT    1.26   2.17 -999 -999 -999  55.6 -99.9 1015.7 -9.9 -9.999 -99.9 -99.99 -9.99
2019/10/14 07:18 EDT    1.24   2.14 -999 -999 -999  55.8 -99.9 1015.7 -9.9 -9.999 -99.9 -99.99 -9.99
2019/10/14 07:24 EDT    1.23   2.12 -999 -999 -999  55.3 -99.9 1015.8 -9.9 -9.999 -99.9 -99.99 -9.99
2019/10/14 07:30 EDT    1.21   2.09 -999 -999 -999  55.4 -99.9 1015.8 -9.9 -9.999 -99.9 -99.99 -9.99
2019/10/14 07:36 EDT    1.19   2.07 -999 -999 -999  55.6 -99.9 1015.9 -9.9 -9.999 -99.9 -99.99 -9.99
2019/10/14 07:42 EDT    1.17   2.05 -999 -999 -999  56.1 -99.9 1015.9 -9.9 -9.999 -99.9 -99.99 -9.99
2019/10/14 07:48 EDT    1.15   2.02 -999 -999 -999  56.4 -99.9 1016.0 -9.9 -9.999 -99.9 -99.99 -9.99
2019/10/14 07:54 EDT    1.13   2.00 -999 -999 -999  56.2 -99.9 1016.0 -9.9 -9.999 -99.9 -99.99 -9.99
2019/10/14 08:00 EDT    1.11   1.98 -999 -999 -999  56.1 -99.9 1016.1 -9.9 -9.999 -99.9 -99.99 -9.99
2019/10/14 08:06 EDT    1.09   1.96 -999 -999 -999  56.0 -99.9 1016.3 -9.9 -9.999 -99.9 -99.99 -9.99
2019/10/14 08:12 EDT    1.07   1.93 -999 -999 -999  56.4 -99.9 1016.4 -9.9 -9.999 -99.9 -99.99 -9.99
2019/10/14 08:18 EDT    1.04   1.91 -999 -999 -999  56.5 -99.9 1016.4 -9.9 -9.999 -99.9 -99.99 -9.99
2019/10/14 08:24 EDT    1.02   1.89 -999 -999 -999  56.8 -99.9 1016.5 -9.9 -9.999 -99.9 -99.99 -9.99
2019/10/14 08:30 EDT    1.00   1.87 -999 -999 -999  56.7 -99.9 1016.5 -9.9 -9.999 -99.9 -99.99 -9.99
2019/10/14 08:36 EDT    0.98   1.85 -999 -999 -999  56.9 -99.9 1016.6 -9.9 -9.999 -99.9 -99.99 -9.99
2019/10/14 08:42 EDT    0.95   1.83 -999 -999 -999  57.4 -99.9 1016.6 -9.9 -9.999 -99.9 -99.99 -9.99
2019/10/14 08:48 EDT    0.93   1.80 -999 -999 -999  57.5 -99.9 1016.7 -9.9 -9.999 -99.9 -99.99 -9.99
2019/10/14 08:54 EDT    0.90   1.78 -999 -999 -999  57.8 -99.9 1016.8 -9.9 -9.999 -99.9 -99.99 -9.99
2019/10/14 09:00 EDT    0.88   1.76 -999 -999 -999  58.4 -99.9 1016.9 -9.9 -9.999 -99.9 -99.99 -9.99
2019/10/14 09:06 EDT    0.86   1.74 -999 -999 -999  58.7 -99.9 1016.9 -9.9 -9.999 -99.9 -99.99 -9.99
2019/10/14 09:12 EDT    0.83   1.71 -999 -999 -999  58.9 -99.9 1017.0 -9.9 -9.999 -99.9 -99.99 -9.99
2019/10/14 09:18 EDT    0.81   1.69 -999 -999 -999  59.6 -99.9 1017.1 -9.9 -9.999 -99.9 -99.99 -9.99
2019/10/14 09:24 EDT    0.78   1.68 -999 -999 -999  60.6 -99.9 1017.1 -9.9 -9.999 -99.9 -99.99 -9.99
2019/10/14 09:30 EDT    0.76   1.65 -999 -999 -999  60.6 -99.9 1017.1 -9.9 -9.999 -99.9 -99.99 -9.99
2019/10/14 09:36 EDT    0.74   1.62 -999 -999 -999  60.0 -99.9 1017.1 -9.9 -9.999 -99.9 -99.99 -9.99
2019/10/14 09:42 EDT    0.71   1.60 -999 -999 -999  59.7 -99.9 1017.1 -9.9 -9.999 -99.9 -99.99 -9.99
2019/10/14 09:48 EDT    0.69   1.59 -999 -999 -999  59.8 -99.9 1017.1 -9.9 -9.999 -99.9 -99.99 -9.99
2019/10/14 09:54 EDT    0.67   1.56 -999 -999 -999  60.2 -99.9 1017.1 -9.9 -9.999 -99.9 -99.99 -9.99
2019/10/14 10:00 EDT    0.64   1.54 -999 -999 -999  60.3 -99.9 1017.1 -9.9 -9.999 -99.9 -99.99 -9.99
2019/10/14 10:06 EDT    0.62   1.52 -999 -999 -999  61.7 -99.9 1017.1 -9.9 -9.999 -99.9 -99.99 -9.99
2019/10/14 10:12 EDT    0.60   1.49 -999 -999 -999  61.3 -99.9 1017.2 -9.9 -9.999 -99.9 -99.99 -9.99
2019/10/14 10:18 EDT    0.57   1.46 -999 -999 -999  61.4 -99.9 1017.2 -9.9 -9.999 -99.9 -99.99 -9.99
2019/10/14 10:24 EDT    0.55   1.44 -999 -999 -999  62.0 -99.9 1017.2 -9.9 -9.999 -99.9 -99.99 -9.99
2019/10/14 10:30 EDT    0.53   1.41 -999 -999 -999  63.1 -99.9 1017.2 -9.9 -9.999 -99.9 -99.99 -9.99
2019/10/14 10:36 EDT    0.51   1.39 -999 -999 -999  63.4 -99.9 1017.2 -9.9 -9.999 -99.9 -99.99 -9.99
2019/10/14 10:42 EDT    0.49   1.38 -999 -999 -999  63.8 -99.9 1017.1 -9.9 -9.999 -99.9 -99.99 -9.99
2019/10/14 10:48 EDT    0.47   1.36 -999 -999 -999  64.0 -99.9 1017.1 -9.9 -9.999 -99.9 -99.99 -9.99
2019/10/14 10:54 EDT    0.45   1.34 -999 -999 -999  63.7 -99.9 1017.1 -9.9 -9.999 -99.9 -99.99 -9.99
2019/10/14 11:00 EDT    0.43   1.31 -999 -999 -999  64.2 -99.9 1017.1 -9.9 -9.999 -99.9 -99.99 -9.99
2019/10/14 11:06 EDT    0.41   1.29 -999 -999 -999  63.5 -99.9 1017.1 -9.9 -9.999 -99.9 -99.99 -9.99
2019/10/14 11:12 EDT    0.40   1.28 -999 -999 -999  63.7 -99.9 1017.0 -9.9 -9.999 -99.9 -99.99 -9.99
2019/10/14 11:18 EDT    0.38   1.26 -999 -999 -999  63.7 -99.9 1017.0 -9.9 -9.999 -99.9 -99.99 -9.99
2019/10/14 11:24 EDT    0.37   1.24 -999 -999 -999  64.5 -99.9 1016.9 -9.9 -9.999 -99.9 -99.99 -9.99
2019/10/14 11:30 EDT    0.36   1.23 -999 -999 -999  65.8 -99.9 1016.9 -9.9 -9.999 -99.9 -99.99 -9.99
2019/10/14 11:36 EDT    0.34   1.21 -999 -999 -999  66.1 -99.9 1016.8 -9.9 -9.999 -99.9 -99.99 -9.99
2019/10/14 11:42 EDT    0.33   1.20 -999 -999 -999  66.7 -99.9 1016.7 -9.9 -9.999 -99.9 -99.99 -9.99
2019/10/14 11:48 EDT    0.32   1.19 -999 -999 -999  66.4 -99.9 1016.6 -9.9 -9.999 -99.9 -99.99 -9.99
2019/10/14 11:54 EDT    0.32   1.18 -999 -999 -999  66.3 -99.9 1016.6 -9.9 -9.999 -99.9 -99.99 -9.99
2019/10/14 12:00 EDT    0.31   1.18 -999 -999 -999  66.3 -99.9 1016.5 -9.9 -9.999 -99.9 -99.99 -9.99
2019/10/14 12:06 EDT    0.31   1.17 -999 -999 -999  66.7 -99.9 1016.4 -9.9 -9.999 -99.9 -99.99 -9.99
2019/10/14 12:12 EDT    0.30   1.17 -999 -999 -999  67.1 -99.9 1016.3 -9.9 -9.999 -99.9 -99.99 -9.99
2019/10/14 12:18 EDT    0.30   1.16 -999 -999 -999  67.8 -99.9 1016.2 -9.9 -9.999 -99.9 -99.99 -9.99
2019/10/14 12:24 EDT    0.30   1.16 -999 -999 -999  67.0 -99.9 1016.2 -9.9 -9.999 -99.9 -99.99 -9.99
2019/10/14 12:30 EDT    0.31   1.16 -999 -999 -999  67.4 -99.9 1016.1 -9.9 -9.999 -99.9 -99.99 -9.99
2019/10/14 12:36 EDT    0.31   1.17 -999 -999 -999  67.1 -99.9 1016.1 -9.9 -9.999 -99.9 -99.99 -9.99
2019/10/14 12:42 EDT    0.32   1.18 -999 -999 -999  67.2 -99.9 1016.1 -9.9 -9.999 -99.9 -99.99 -9.99
2019/10/14 12:48 EDT    0.32   1.18 -999 -999 -999  68.7 -99.9 1016.0 -9.9 -9.999 -99.9 -99.99 -9.99
2019/10/14 12:54 EDT    0.33   1.19 -999 -999 -999  69.0 -99.9 1015.9 -9.9 -9.999 -99.9 -99.99 -9.99
2019/10/14 13:00 EDT    0.34   1.20 -999 -999 -999  69.5 -99.9 1015.9 -9.9 -9.999 -99.9 -99.99 -9.99
2019/10/14 13:06 EDT    0.36   1.22 -999 -999 -999  70.3 -99.9 1015.9 -9.9 -9.999 -99.9 -99.99 -9.99
2019/10/14 13:12 EDT    0.37   1.23 -999 -999 -999  69.2 -99.9 1015.8 -9.9 -9.999 -99.9 -99.99 -9.99
2019/10/14 13:18 EDT    0.39   1.25 -999 -999 -999  68.7 -99.9 1015.7 -9.9 -9.999 -99.9 -99.99 -9.99
2019/10/14 13:24 EDT    0.40   1.26 -999 -999 -999  69.2 -99.9 1015.6 -9.9 -9.999 -99.9 -99.99 -9.99
2019/10/14 13:30 EDT    0.42   1.28 -999 -999 -999  69.5 -99.9 1015.6 -9.9 -9.999 -99.9 -99.99 -9.99
2019/10/14 13:36 EDT    0.44   1.30 -999 -999 -999  70.5 -99.9 1015.5 -9.9 -9.999 -99.9 -99.99 -9.99
2019/10/14 13:42 EDT    0.46   1.32 -999 -999 -999  70.4 -99.9 1015.4 -9.9 -9.999 -99.9 -99.99 -9.99
2019/10/14 13:48 EDT    0.48   1.34 -999 -999 -999  70.8 -99.9 1015.3 -9.9 -9.999 -99.9 -99.99 -9.99
2019/10/14 13:54 EDT    0.51   1.36 -999 -999 -999  70.6 -99.9 1015.2 -9.9 -9.999 -99.9 -99.99 -9.99
2019/10/14 14:00 EDT    0.53   1.39 -999 -999 -999  71.1 -99.9 1015.1 -9.9 -9.999 -99.9 -99.99 -9.99
2019/10/14 14:06 EDT    0.55   1.41 -999 -999 -999  71.1 -99.9 1015.0 -9.9 -9.999 -99.9 -99.99 -9.99
2019/10/14 14:12 EDT    0.58   1.43 -999 -999 -999  71.2 -99.9 1014.9 -9.9 -9.999 -99.9 -99.99 -9.99
2019/10/14 14:18 EDT    0.60   1.46 -999 -999 -999  71.5 -99.9 1014.8 -9.9 -9.999 -99.9 -99.99 -9.99
2019/10/14 14:24 EDT    0.63   1.48 -999 -999 -999  71.8 -99.9 1014.7 -9.9 -9.999 -99.9 -99.99 -9.99
2019/10/14 14:30 EDT    0.66   1.51 -999 -999 -999  71.7 -99.9 1014.6 -9.9 -9.999 -99.9 -99.99 -9.99
2019/10/14 14:36 EDT    0.69   1.54 -999 -999 -999  71.6 -99.9 1014.5 -9.9 -9.999 -99.9 -99.99 -9.99
2019/10/14 14:42 EDT    0.71   1.57 -999 -999 -999  70.5 -99.9 1014.5 -9.9 -9.999 -99.9 -99.99 -9.99
2019/10/14 14:48 EDT    0.74   1.60 -999 -999 -999  71.5 -99.9 1014.4 -9.9 -9.999 -99.9 -99.99 -9.99
2019/10/14 14:54 EDT    0.77   1.63 -999 -999 -999  71.7 -99.9 1014.3 -9.9 -9.999 -99.9 -99.99 -9.99
2019/10/14 15:00 EDT    0.80   1.65 -999 -999 -999  71.8 -99.9 1014.2 -9.9 -9.999 -99.9 -99.99 -9.99
2019/10/14 15:06 EDT    0.82   1.68 -999 -999 -999  71.5 -99.9 1014.2 -9.9 -9.999 -99.9 -99.99 -9.99
2019/10/14 15:12 EDT    0.85   1.69 -999 -999 -999  72.1 -99.9 1014.2 -9.9 -9.999 -99.9 -99.99 -9.99
2019/10/14 15:18 EDT    0.88   1.72 -999 -999 -999  72.1 -99.9 1014.1 -9.9 -9.999 -99.9 -99.99 -9.99
2019/10/14 15:24 EDT    0.91   1.75 -999 -999 -999  72.1 -99.9 1014.0 -9.9 -9.999 -99.9 -99.99 -9.99
2019/10/14 15:30 EDT    0.94   1.76 -999 -999 -999  71.8 -99.9 1014.0 -9.9 -9.999 -99.9 -99.99 -9.99
2019/10/14 15:36 EDT    0.96   1.79 -999 -999 -999  70.7 -99.9 1014.0 -9.9 -9.999 -99.9 -99.99 -9.99
2019/10/14 15:42 EDT    0.99   1.80 -999 -999 -999  70.9 -99.9 1014.0 -9.9 -9.999 -99.9 -99.99 -9.99
2019/10/14 15:48 EDT    1.02   1.82 -999 -999 -999  69.1 -99.9 1014.0 -9.9 -9.999 -99.9 -99.99 -9.99
2019/10/14 15:54 EDT    1.04   1.84 -999 -999 -999  69.3 -99.9 1013.9 -9.9 -9.999 -99.9 -99.99 -9.99
2019/10/14 16:00 EDT    1.07   1.86 -999 -999 -999  68.5 -99.9 1013.9 -9.9 -9.999 -99.9 -99.99 -9.99
2019/10/14 16:06 EDT    1.10   1.89 -999 -999 -999  68.6 -99.9 1013.8 -9.9 -9.999 -99.9 -99.99 -9.99
2019/10/14 16:12 EDT    1.12   1.91 -999 -999 -999  69.1 -99.9 1013.8 -9.9 -9.999 -99.9 -99.99 -9.99
2019/10/14 16:18 EDT    1.15   1.94 -999 -999 -999  68.5 -99.9 1013.8 -9.9 -9.999 -99.9 -99.99 -9.99
2019/10/14 16:24 EDT    1.17   1.96 -999 -999 -999  71.2 -99.9 1013.8 -9.9 -9.999 -99.9 -99.99 -9.99
2019/10/14 16:30 EDT    1.19   1.98 -999 -999 -999  72.4 -99.9 1013.8 -9.9 -9.999 -99.9 -99.99 -9.99
2019/10/14 16:36 EDT    1.22   2.01 -999 -999 -999  72.7 -99.9 1013.8 -9.9 -9.999 -99.9 -99.99 -9.99
2019/10/14 16:42 EDT    1.24   2.02 -999 -999 -999  72.9 -99.9 1013.9 -9.9 -9.999 -99.9 -99.99 -9.99
2019/10/14 16:48 EDT    1.26   2.05 -999 -999 -999  73.0 -99.9 1013.9 -9.9 -9.999 -99.9 -99.99 -9.99
2019/10/14 16:54 EDT    1.29   2.07 -999 -999 -999  72.8 -99.9 1013.9 -9.9 -9.999 -99.9 -99.99 -9.99
2019/10/14 17:00 EDT    1.31   2.08 -999 -999 -999  71.3 -99.9 1013.9 -9.9 -9.999 -99.9 -99.99 -9.99
2019/10/14 17:06 EDT    1.33   2.09 -999 -999 -999  71.0 -99.9 1014.0 -9.9 -9.999 -99.9 -99.99 -9.99
2019/10/14 17:12 EDT    1.35   2.10 -999 -999 -999  70.6 -99.9 1014.1 -9.9 -9.999 -99.9 -99.99 -9.99
2019/10/14 17:18 EDT    1.36   2.12 -999 -999 -999  70.2 -99.9 1014.1 -9.9 -9.999 -99.9 -99.99 -9.99
2019/10/14 17:24 EDT    1.38   2.13 -999 -999 -999  69.9 -99.9 1014.2 -9.9 -9.999 -99.9 -99.99 -9.99
2019/10/14 17:30 EDT    1.40   2.14 -999 -999 -999  69.5 -99.9 1014.2 -9.9 -9.999 -99.9 -99.99 -9.99
2019/10/14 17:36 EDT    1.41   2.16 -999 -999 -999  69.3 -99.9 1014.2 -9.9 -9.999 -99.9 -99.99 -9.99
2019/10/14 17:42 EDT    1.43   2.17 -999 -999 -999  69.2 -99.9 1014.2 -9.9 -9.999 -99.9 -99.99 -9.99
2019/10/14 17:48 EDT    1.44   2.18 -999 -999 -999  68.9 -99.9 1014.3 -9.9 -9.999 -99.9 -99.99 -9.99
2019/10/14 17:54 EDT    1.45   2.19 -999 -999 -999  68.6 -99.9 1014.3 -9.9 -9.999 -99.9 -99.99 -9.99
2019/10/14 18:00 EDT    1.46   2.19 -999 -999 -999  68.3 -99.9 1014.4 -9.9 -9.999 -99.9 -99.99 -9.99
2019/10/14 18:06 EDT    1.47   2.20 -999 -999 -999  68.1 -99.9 1014.4 -9.9 -9.999 -99.9 -99.99 -9.99
2019/10/14 18:12 EDT    1.48   2.21 -999 -999 -999  68.0 -99.9 1014.4 -9.9 -9.999 -99.9 -99.99 -9.99
2019/10/14 18:18 EDT    1.49   2.22 -999 -999 -999  67.7 -99.9 1014.4 -9.9 -9.999 -99.9 -99.99 -9.99
2019/10/14 18:24 EDT    1.49   2.23 -999 -999 -999  67.5 -99.9 1014.4 -9.9 -9.999 -99.9 -99.99 -9.99
2019/10/14 18:30 EDT    1.50   2.23 -999 -999 -999  67.3 -99.9 1014.6 -9.9 -9.999 -99.9 -99.99 -9.99
2019/10/14 18:36 EDT    1.50   2.23 -999 -999 -999  67.1 -99.9 1014.6 -9.9 -9.999 -99.9 -99.99 -9.99
2019/10/14 18:42 EDT    1.50   2.23 -999 -999 -999  66.8 -99.9 1014.6 -9.9 -9.999 -99.9 -99.99 -9.99
2019/10/14 18:48 EDT    1.50   2.22 -999 -999 -999  66.7 -99.9 1014.7 -9.9 -9.999 -99.9 -99.99 -9.99
2019/10/14 18:54 EDT    1.50   2.22 -999 -999 -999  66.4 -99.9 1014.8 -9.9 -9.999 -99.9 -99.99 -9.99
2019/10/14 19:00 EDT    1.49   2.21 -999 -999 -999  66.3 -99.9 1014.8 -9.9 -9.999 -99.9 -99.99 -9.99
2019/10/14 19:06 EDT    1.49   2.20 -999 -999 -999  66.1 -99.9 1014.9 -9.9 -9.999 -99.9 -99.99 -9.99
2019/10/14 19:12 EDT    1.48   2.18 -999 -999 -999  66.0 -99.9 1015.0 -9.9 -9.999 -99.9 -99.99 -9.99
2019/10/14 19:18 EDT    1.48   2.16 -999 -999 -999  65.8 -99.9 1015.1 -9.9 -9.999 -99.9 -99.99 -9.99
2019/10/14 19:24 EDT    1.47   2.15 -999 -999 -999  65.8 -99.9 1015.2 -9.9 -9.999 -99.9 -99.99 -9.99
2019/10/14 19:30 EDT    1.46   2.14 -999 -999 -999  65.5 -99.9 1015.2 -9.9 -9.999 -99.9 -99.99 -9.99
2019/10/14 19:36 EDT    1.45   2.13 -999 -999 -999  65.3 -99.9 1015.3 -9.9 -9.999 -99.9 -99.99 -9.99
2019/10/14 19:42 EDT    1.44   2.12 -999 -999 -999  65.1 -99.9 1015.3 -9.9 -9.999 -99.9 -99.99 -9.99
2019/10/14 19:48 EDT    1.42   2.11 -999 -999 -999  64.9 -99.9 1015.4 -9.9 -9.999 -99.9 -99.99 -9.99
2019/10/14 19:54 EDT    1.41   2.09 -999 -999 -999  64.8 -99.9 1015.5 -9.9 -9.999 -99.9 -99.99 -9.99
2019/10/14 20:00 EDT    1.39   2.07 -999 -999 -999  64.6 -99.9 1015.5 -9.9 -9.999 -99.9 -99.99 -9.99
2019/10/14 20:06 EDT    1.38   2.05 -999 -999 -999  64.3 -99.9 1015.5 -9.9 -9.999 -99.9 -99.99 -9.99
2019/10/14 20:12 EDT    1.36   2.01 -999 -999 -999  64.1 -99.9 1015.6 -9.9 -9.999 -99.9 -99.99 -9.99
2019/10/14 20:18 EDT    1.34   1.99 -999 -999 -999  64.2 -99.9 1015.6 -9.9 -9.999 -99.9 -99.99 -9.99
2019/10/14 20:24 EDT    1.33   1.98 -999 -999 -999  63.9 -99.9 1015.7 -9.9 -9.999 -99.9 -99.99 -9.99
2019/10/14 20:30 EDT    1.31   1.96 -999 -999 -999  63.7 -99.9 1015.7 -9.9 -9.999 -99.9 -99.99 -9.99
2019/10/14 20:36 EDT    1.29   1.95 -999 -999 -999  63.6 -99.9 1015.7 -9.9 -9.999 -99.9 -99.99 -9.99
2019/10/14 20:42 EDT    1.27   1.92 -999 -999 -999  62.9 -99.9 1015.7 -9.9 -9.999 -99.9 -99.99 -9.99
2019/10/14 20:48 EDT    1.25   1.90 -999 -999 -999  62.7 -99.9 1015.8 -9.9 -9.999 -99.9 -99.99 -9.99
2019/10/14 20:54 EDT    1.23   1.89 -999 -999 -999  62.5 -99.9 1015.8 -9.9 -9.999 -99.9 -99.99 -9.99
2019/10/14 21:00 EDT    1.21   1.87 -999 -999 -999  62.6 -99.9 1015.9 -9.9 -9.999 -99.9 -99.99 -9.99
2019/10/14 21:06 EDT    1.19   1.85 -999 -999 -999  62.2 -99.9 1015.9 -9.9 -9.999 -99.9 -99.99 -9.99
2019/10/14 21:12 EDT    1.16   1.82 -999 -999 -999  61.9 -99.9 1016.0 -9.9 -9.999 -99.9 -99.99 -9.99
2019/10/14 21:18 EDT    1.14   1.81 -999 -999 -999  62.1 -99.9 1016.1 -9.9 -9.999 -99.9 -99.99 -9.99
2019/10/14 21:24 EDT    1.12   1.79 -999 -999 -999  62.0 -99.9 1016.1 -9.9 -9.999 -99.9 -99.99 -9.99
2019/10/14 21:30 EDT    1.10   1.77 -999 -999 -999  61.7 -99.9 1016.1 -9.9 -9.999 -99.9 -99.99 -9.99
2019/10/14 21:36 EDT    1.08   1.75 -999 -999 -999  61.5 -99.9 1016.2 -9.9 -9.999 -99.9 -99.99 -9.99
2019/10/14 21:42 EDT    1.05   1.73 -999 -999 -999  61.9 -99.9 1016.2 -9.9 -9.999 -99.9 -99.99 -9.99
2019/10/14 21:48 EDT    1.03   1.71 -999 -999 -999  61.7 -99.9 1016.2 -9.9 -9.999 -99.9 -99.99 -9.99
2019/10/14 21:54 EDT    1.01   1.69 -999 -999 -999  61.5 -99.9 1016.3 -9.9 -9.999 -99.9 -99.99 -9.99
2019/10/14 22:00 EDT    0.99   1.66 -999 -999 -999  61.2 -99.9 1016.3 -9.9 -9.999 -99.9 -99.99 -9.99
2019/10/14 22:06 EDT    0.96   1.64 -999 -999 -999  61.0 -99.9 1016.3 -9.9 -9.999 -99.9 -99.99 -9.99
2019/10/14 22:12 EDT    0.94   1.61 -999 -999 -999  60.6 -99.9 1016.4 -9.9 -9.999 -99.9 -99.99 -9.99
2019/10/14 22:18 EDT    0.92   1.59 -999 -999 -999  60.5 -99.9 1016.5 -9.9 -9.999 -99.9 -99.99 -9.99
2019/10/14 22:24 EDT    0.90   1.58 -999 -999 -999  60.1 -99.9 1016.9 -9.9 -9.999 -99.9 -99.99 -9.99
2019/10/14 22:30 EDT    0.88   1.56 -999 -999 -999  61.4 -99.9 1017.1 -9.9 -9.999 -99.9 -99.99 -9.99
2019/10/14 22:36 EDT    0.85   1.52 -999 -999 -999  61.6 -99.9 1017.0 -9.9 -9.999 -99.9 -99.99 -9.99
2019/10/14 22:42 EDT    0.83   1.50 -999 -999 -999  61.7 -99.9 1016.9 -9.9 -9.999 -99.9 -99.99 -9.99
2019/10/14 22:48 EDT    0.81   1.48 -999 -999 -999  61.6 -99.9 1016.9 -9.9 -9.999 -99.9 -99.99 -9.99
2019/10/14 22:54 EDT    0.79   1.47 -999 -999 -999  61.5 -99.9 1017.1 -9.9 -9.999 -99.9 -99.99 -9.99
2019/10/14 23:00 EDT    0.77   1.47 -999 -999 -999  61.5 -99.9 1017.1 -9.9 -9.999 -99.9 -99.99 -9.99
2019/10/14 23:06 EDT    0.75   1.44 -999 -999 -999  61.5 -99.9 1017.2 -9.9 -9.999 -99.9 -99.99 -9.99
2019/10/14 23:12 EDT    0.73   1.39 -999 -999 -999  61.0 -99.9 1017.2 -9.9 -9.999 -99.9 -99.99 -9.99
2019/10/14 23:18 EDT    0.71   1.37 -999 -999 -999  60.9 -99.9 1017.3 -9.9 -9.999 -99.9 -99.99 -9.99
2019/10/14 23:24 EDT    0.69   1.36 -999 -999 -999  60.9 -99.9 1017.3 -9.9 -9.999 -99.9 -99.99 -9.99
2019/10/14 23:30 EDT    0.67   1.34 -999 -999 -999  60.6 -99.9 1017.3 -9.9 -9.999 -99.9 -99.99 -9.99
2019/10/14 23:36 EDT    0.65   1.30 -999 -999 -999  60.5 -99.9 1017.3 -9.9 -9.999 -99.9 -99.99 -9.99
2019/10/14 23:42 EDT    0.64   1.29 -999 -999 -999  60.2 -99.9 1017.4 -9.9 -9.999 -99.9 -99.99 -9.99
2019/10/14 23:48 EDT    0.62   1.28 -999 -999 -999  59.9 -99.9 1017.4 -9.9 -9.999 -99.9 -99.99 -9.99
2019/10/14 23:54 EDT    0.61   1.28 -999 -999 -999  59.8 -99.9 1017.5 -9.9 -9.999 -99.9 -99.99 -9.99
2019/10/15 00:00 EDT    0.60   1.27 -999 -999 -999  59.8 -99.9 1017.5 -9.9 -9.999 -99.9 -99.99 -9.99
2019/10/15 00:06 EDT    0.58   1.28 -999 -999 -999  59.8 -99.9 1017.6 -9.9 -9.999 -99.9 -99.99 -9.99
2019/10/15 00:12 EDT    0.57   1.29 -999 -999 -999  59.4 -99.9 1017.7 -9.9 -9.999 -99.9 -99.99 -9.99
2019/10/15 00:18 EDT    0.56   1.29 -999 -999 -999  59.1 -99.9 1017.8 -9.9 -9.999 -99.9 -99.99 -9.99
2019/10/15 00:24 EDT    0.56   1.28 -999 -999 -999  59.3 -99.9 1018.0 -9.9 -9.999 -99.9 -99.99 -9.99
2019/10/15 00:30 EDT    0.55   1.27 -999 -999 -999  59.4 -99.9 1018.0 -9.9 -9.999 -99.9 -99.99 -9.99
2019/10/15 00:36 EDT    0.54   1.26 -999 -999 -999  59.3 -99.9 1018.1 -9.9 -9.999 -99.9 -99.99 -9.99
2019/10/15 00:42 EDT    0.54   1.24 -999 -999 -999  59.1 -99.9 1018.1 -9.9 -9.999 -99.9 -99.99 -9.99
2019/10/15 00:48 EDT    0.54   1.25 -999 -999 -999  59.5 -99.9 1018.1 -9.9 -9.999 -99.9 -99.99 -9.99
2019/10/15 00:54 EDT    0.54   1.25 -999 -999 -999  59.2 -99.9 1018.2 -9.9 -9.999 -99.9 -99.99 -9.99
2019/10/15 01:00 EDT    0.54   1.25 -999 -999 -999  58.6 -99.9 1018.2 -9.9 -9.999 -99.9 -99.99 -9.99
2019/10/15 01:06 EDT    0.54   1.27 -999 -999 -999  58.4 -99.9 1018.3 -9.9 -9.999 -99.9 -99.99 -9.99
2019/10/15 01:12 EDT    0.55   1.28 -999 -999 -999  59.5 -99.9 1018.4 -9.9 -9.999 -99.9 -99.99 -9.99
2019/10/15 01:18 EDT    0.55   1.28 -999 -999 -999  59.9 -99.9 1018.4 -9.9 -9.999 -99.9 -99.99 -9.99
2019/10/15 01:24 EDT    0.56   1.31 -999 -999 -999  59.2 -99.9 1018.4 -9.9 -9.999 -99.9 -99.99 -9.99
2019/10/15 01:30 EDT    0.57   1.34 -999 -999 -999  58.4 -99.9 1018.6 -9.9 -9.999 -99.9 -99.99 -9.99
2019/10/15 01:36 EDT    0.58   1.36 -999 -999 -999  58.3 -99.9 1018.6 -9.9 -9.999 -99.9 -99.99 -9.99
2019/10/15 01:42 EDT    0.59   1.37 -999 -999 -999  58.1 -99.9 1018.7 -9.9 -9.999 -99.9 -99.99 -9.99
2019/10/15 01:48 EDT    0.60   1.38 -999 -999 -999  58.0 -99.9 1018.7 -9.9 -9.999 -99.9 -99.99 -9.99
2019/10/15 01:54 EDT    0.61   1.38 -999 -999 -999  57.9 -99.9 1018.8 -9.9 -9.999 -99.9 -99.99 -9.99
2019/10/15 02:00 EDT    0.63   1.40 -999 -999 -999  58.0 -99.9 1018.8 -9.9 -9.999 -99.9 -99.99 -9.99
2019/10/15 02:06 EDT    0.64   1.42 -999 -999 -999  57.9 -99.9 1018.9 -9.9 -9.999 -99.9 -99.99 -9.99
2019/10/15 02:12 EDT    0.66   1.43 -999 -999 -999  58.0 -99.9 1018.9 -9.9 -9.999 -99.9 -99.99 -9.99
2019/10/15 02:18 EDT    0.68   1.45 -999 -999 -999  58.8 -99.9 1018.9 -9.9 -9.999 -99.9 -99.99 -9.99
2019/10/15 02:24 EDT    0.70   1.49 -999 -999 -999  59.0 -99.9 1018.9 -9.9 -9.999 -99.9 -99.99 -9.99
2019/10/15 02:30 EDT    0.71   1.50 -999 -999 -999  59.2 -99.9 1018.9 -9.9 -9.999 -99.9 -99.99 -9.99
2019/10/15 02:36 EDT    0.73   1.52 -999 -999 -999  58.3 -99.9 1018.9 -9.9 -9.999 -99.9 -99.99 -9.99
2019/10/15 02:42 EDT    0.75   1.55 -999 -999 -999  57.5 -99.9 1018.9 -9.9 -9.999 -99.9 -99.99 -9.99
2019/10/15 02:48 EDT    0.77   1.58 -999 -999 -999  57.3 -99.9 1019.0 -9.9 -9.999 -99.9 -99.99 -9.99
2019/10/15 02:54 EDT    0.79   1.59 -999 -999 -999  56.9 -99.9 1019.0 -9.9 -9.999 -99.9 -99.99 -9.99
2019/10/15 03:00 EDT    0.81   1.61 -999 -999 -999  56.9 -99.9 1019.0 -9.9 -9.999 -99.9 -99.99 -9.99
2019/10/15 03:06 EDT    0.83   1.62 -999 -999 -999  56.9 -99.9 1019.0 -9.9 -9.999 -99.9 -99.99 -9.99
2019/10/15 03:12 EDT    0.86   1.65 -999 -999 -999  56.6 -99.9 1019.0 -9.9 -9.999 -99.9 -99.99 -9.99
2019/10/15 03:18 EDT    0.88   1.67 -999 -999 -999  56.6 -99.9 1019.0 -9.9 -9.999 -99.9 -99.99 -9.99
2019/10/15 03:24 EDT    0.90   1.70 -999 -999 -999  56.1 -99.9 1019.0 -9.9 -9.999 -99.9 -99.99 -9.99
2019/10/15 03:30 EDT    0.92   1.71 -999 -999 -999  56.0 -99.9 1019.0 -9.9 -9.999 -99.9 -99.99 -9.99
2019/10/15 03:36 EDT    0.94   1.73 -999 -999 -999  55.9 -99.9 1019.0 -9.9 -9.999 -99.9 -99.99 -9.99
2019/10/15 03:42 EDT    0.96   1.75 -999 -999 -999  55.9 -99.9 1019.0 -9.9 -9.999 -99.9 -99.99 -9.99
2019/10/15 03:48 EDT    0.98   1.77 -999 -999 -999  56.7 -99.9 1019.0 -9.9 -9.999 -99.9 -99.99 -9.99
2019/10/15 03:54 EDT    1.00   1.78 -999 -999 -999  56.0 -99.9 1019.0 -9.9 -9.999 -99.9 -99.99 -9.99
2019/10/15 04:00 EDT    1.02   1.80 -999 -999 -999  55.8 -99.9 1019.0 -9.9 -9.999 -99.9 -99.99 -9.99
2019/10/15 04:06 EDT    1.04   1.80 -999 -999 -999  55.8 -99.9 1019.0 -9.9 -9.999 -99.9 -99.99 -9.99
2019/10/15 04:12 EDT    1.06   1.83 -999 -999 -999  55.8 -99.9 1019.0 -9.9 -9.999 -99.9 -99.99 -9.99
2019/10/15 04:18 EDT    1.07   1.86 -999 -999 -999  56.2 -99.9 1019.1 -9.9 -9.999 -99.9 -99.99 -9.99
2019/10/15 04:24 EDT    1.09   1.88 -999 -999 -999  55.7 -99.9 1019.1 -9.9 -9.999 -99.9 -99.99 -9.99
2019/10/15 04:30 EDT    1.11   1.90 -999 -999 -999  55.5 -99.9 1019.2 -9.9 -9.999 -99.9 -99.99 -9.99
2019/10/15 04:36 EDT    1.13   1.92 -999 -999 -999  55.4 -99.9 1019.2 -9.9 -9.999 -99.9 -99.99 -9.99
2019/10/15 04:42 EDT    1.14   1.93 -999 -999 -999  55.3 -99.9 1019.2 -9.9 -9.999 -99.9 -99.99 -9.99
2019/10/15 04:48 EDT    1.16   1.94 -999 -999 -999  56.1 -99.9 1019.3 -9.9 -9.999 -99.9 -99.99 -9.99
2019/10/15 04:54 EDT    1.17   1.96 -999 -999 -999  55.5 -99.9 1019.4 -9.9 -9.999 -99.9 -99.99 -9.99
2019/10/15 05:00 EDT    1.19   1.98 -999 -999 -999  55.3 -99.9 1019.5 -9.9 -9.999 -99.9 -99.99 -9.99
2019/10/15 05:06 EDT    1.20   2.00 -999 -999 -999  55.2 -99.9 1019.5 -9.9 -9.999 -99.9 -99.99 -9.99
2019/10/15 05:12 EDT    1.21   2.02 -999 -999 -999  55.0 -99.9 1019.6 -9.9 -9.999 -99.9 -99.99 -9.99
2019/10/15 05:18 EDT    1.23   2.04 -999 -999 -999  55.0 -99.9 1019.6 -9.9 -9.999 -99.9 -99.99 -9.99
2019/10/15 05:24 EDT    1.24   2.04 -999 -999 -999  54.8 -99.9 1019.7 -9.9 -9.999 -99.9 -99.99 -9.99
2019/10/15 05:30 EDT    1.25   2.06 -999 -999 -999  54.7 -99.9 1019.8 -9.9 -9.999 -99.9 -99.99 -9.99
2019/10/15 05:36 EDT    1.26   2.08 -999 -999 -999  55.8 -99.9 1019.7 -9.9 -9.999 -99.9 -99.99 -9.99
2019/10/15 05:42 EDT    1.27   2.09 -999 -999 -999  56.5 -99.9 1019.8 -9.9 -9.999 -99.9 -99.99 -9.99
2019/10/15 05:48 EDT    1.28   2.10 -999 -999 -999  55.8 -99.9 1019.9 -9.9 -9.999 -99.9 -99.99 -9.99
2019/10/15 05:54 EDT    1.29   2.10 -999 -999 -999  55.5 -99.9 1019.9 -9.9 -9.999 -99.9 -99.99 -9.99
2019/10/15 06:00 EDT    1.29   2.11 -999 -999 -999  55.0 -99.9 1020.0 -9.9 -9.999 -99.9 -99.99 -9.99
2019/10/15 06:06 EDT    1.30   2.11 -999 -999 -999  54.8 -99.9 1020.1 -9.9 -9.999 -99.9 -99.99 -9.99
2019/10/15 06:12 EDT    1.30   2.12 -999 -999 -999  54.6 -99.9 1020.2 -9.9 -9.999 -99.9 -99.99 -9.99
2019/10/15 06:18 EDT    1.30   2.12 -999 -999 -999  54.5 -99.9 1020.3 -9.9 -9.999 -99.9 -99.99 -9.99
2019/10/15 06:24 EDT    1.31   2.13 -999 -999 -999  54.8 -99.9 1020.4 -9.9 -9.999 -99.9 -99.99 -9.99
2019/10/15 06:30 EDT    1.31   2.13 -999 -999 -999  54.7 -99.9 1020.4 -9.9 -9.999 -99.9 -99.99 -9.99
2019/10/15 06:36 EDT    1.31   2.14 -999 -999 -999  54.9 -99.9 1020.4 -9.9 -9.999 -99.9 -99.99 -9.99
2019/10/15 06:42 EDT    1.31   2.13 -999 -999 -999  54.9 -99.9 1020.4 -9.9 -9.999 -99.9 -99.99 -9.99
2019/10/15 06:48 EDT    1.30   2.13 -999 -999 -999  55.8 -99.9 1020.4 -9.9 -9.999 -99.9 -99.99 -9.99
2019/10/15 06:54 EDT    1.30   2.12 -999 -999 -999  55.8 -99.9 1020.4 -9.9 -9.999 -99.9 -99.99 -9.99
2019/10/15 07:00 EDT    1.29   2.12 -999 -999 -999  55.6 -99.9 1020.5 -9.9 -9.999 -99.9 -99.99 -9.99
2019/10/15 07:06 EDT    1.29   2.11 -999 -999 -999  56.1 -99.9 1020.5 -9.9 -9.999 -99.9 -99.99 -9.99
2019/10/15 07:12 EDT    1.28   2.10 -999 -999 -999  55.7 -99.9 1020.6 -9.9 -9.999 -99.9 -99.99 -9.99
2019/10/15 07:18 EDT    1.27   2.09 -999 -999 -999  55.9 -99.9 1020.7 -9.9 -9.999 -99.9 -99.99 -9.99
2019/10/15 07:24 EDT    1.26   2.07 -999 -999 -999  56.0 -99.9 1020.7 -9.9 -9.999 -99.9 -99.99 -9.99
2019/10/15 07:30 EDT    1.24   2.06 -999 -999 -999  56.7 -99.9 1020.8 -9.9 -9.999 -99.9 -99.99 -9.99
2019/10/15 07:36 EDT    1.23   2.05 -999 -999 -999  57.1 -99.9 1020.9 -9.9 -9.999 -99.9 -99.99 -9.99
2019/10/15 07:42 EDT    1.22   2.04 -999 -999 -999  57.3 -99.9 1020.9 -9.9 -9.999 -99.9 -99.99 -9.99
2019/10/15 07:48 EDT    1.20   2.03 -999 -999 -999  57.8 -99.9 1021.0 -9.9 -9.999 -99.9 -99.99 -9.99
2019/10/15 07:54 EDT    1.19   2.02 -999 -999 -999  57.9 -99.9 1021.0 -9.9 -9.999 -99.9 -99.99 -9.99
2019/10/15 08:00 EDT    1.17   2.01 -999 -999 -999  58.2 -99.9 1021.0 -9.9 -9.999 -99.9 -99.99 -9.99
2019/10/15 08:06 EDT    1.15   2.00 -999 -999 -999  58.7 -99.9 1021.1 -9.9 -9.999 -99.9 -99.99 -9.99
2019/10/15 08:12 EDT    1.13   1.97 -999 -999 -999  59.1 -99.9 1021.2 -9.9 -9.999 -99.9 -99.99 -9.99
2019/10/15 08:18 EDT    1.11   1.95 -999 -999 -999  59.3 -99.9 1021.3 -9.9 -9.999 -99.9 -99.99 -9.99
2019/10/15 08:24 EDT    1.09   1.93 -999 -999 -999  59.2 -99.9 1021.4 -9.9 -9.999 -99.9 -99.99 -9.99
2019/10/15 08:30 EDT    1.07   1.92 -999 -999 -999  59.2 -99.9 1021.4 -9.9 -9.999 -99.9 -99.99 -9.99
2019/10/15 08:36 EDT    1.05   1.90 -999 -999 -999  59.1 -99.9 1021.4 -9.9 -9.999 -99.9 -99.99 -9.99
2019/10/15 08:42 EDT    1.03   1.88 -999 -999 -999  59.4 -99.9 1021.5 -9.9 -9.999 -99.9 -99.99 -9.99
2019/10/15 08:48 EDT    1.00   1.86 -999 -999 -999  59.5 -99.9 1021.6 -9.9 -9.999 -99.9 -99.99 -9.99
2019/10/15 08:54 EDT    0.98   1.85 -999 -999 -999  59.7 -99.9 1021.7 -9.9 -9.999 -99.9 -99.99 -9.99
2019/10/15 09:00 EDT    0.96   1.83 -999 -999 -999  60.2 -99.9 1021.8 -9.9 -9.999 -99.9 -99.99 -9.99
2019/10/15 09:06 EDT    0.93   1.81 -999 -999 -999  59.8 -99.9 1021.8 -9.9 -9.999 -99.9 -99.99 -9.99
2019/10/15 09:12 EDT    0.91   1.79 -999 -999 -999  60.5 -99.9 1021.8 -9.9 -9.999 -99.9 -99.99 -9.99
2019/10/15 09:18 EDT    0.89   1.77 -999 -999 -999  60.8 -99.9 1021.7 -9.9 -9.999 -99.9 -99.99 -9.99
2019/10/15 09:24 EDT    0.86   1.75 -999 -999 -999  60.7 -99.9 1021.6 -9.9 -9.999 -99.9 -99.99 -9.99
2019/10/15 09:30 EDT    0.84   1.73 -999 -999 -999  60.2 -99.9 1021.7 -9.9 -9.999 -99.9 -99.99 -9.99
2019/10/15 09:36 EDT    0.81   1.71 -999 -999 -999  60.1 -99.9 1021.8 -9.9 -9.999 -99.9 -99.99 -9.99
2019/10/15 09:42 EDT    0.79   1.69 -999 -999 -999  59.6 -99.9 1021.9 -9.9 -9.999 -99.9 -99.99 -9.99
2019/10/15 09:48 EDT    0.77   1.67 -999 -999 -999  59.5 -99.9 1021.9 -9.9 -9.999 -99.9 -99.99 -9.99
2019/10/15 09:54 EDT    0.74   1.64 -999 -999 -999  59.5 -99.9 1021.8 -9.9 -9.999 -99.9 -99.99 -9.99
2019/10/15 10:00 EDT    0.72   1.62 -999 -999 -999  59.8 -99.9 1021.8 -9.9 -9.999 -99.9 -99.99 -9.99
2019/10/15 10:06 EDT    0.70   1.60 -999 -999 -999  59.8 -99.9 1021.8 -9.9 -9.999 -99.9 -99.99 -9.99
2019/10/15 10:12 EDT    0.67   1.59 -999 -999 -999  59.9 -99.9 1021.8 -9.9 -9.999 -99.9 -99.99 -9.99
2019/10/15 10:18 EDT    0.65   1.57 -999 -999 -999  59.6 -99.9 1021.8 -9.9 -9.999 -99.9 -99.99 -9.99
2019/10/15 10:24 EDT    0.63   1.54 -999 -999 -999  59.8 -99.9 1021.7 -9.9 -9.999 -99.9 -99.99 -9.99
2019/10/15 10:30 EDT    0.61   1.51 -999 -999 -999  60.0 -99.9 1021.6 -9.9 -9.999 -99.9 -99.99 -9.99
2019/10/15 10:36 EDT    0.58   1.50 -999 -999 -999  60.4 -99.9 1021.6 -9.9 -9.999 -99.9 -99.99 -9.99
2019/10/15 10:42 EDT    0.56   1.47 -999 -999 -999  60.1 -99.9 1021.7 -9.9 -9.999 -99.9 -99.99 -9.99
2019/10/15 10:48 EDT    0.54   1.45 -999 -999 -999  60.0 -99.9 1021.6 -9.9 -9.999 -99.9 -99.99 -9.99
2019/10/15 10:54 EDT    0.52   1.43 -999 -999 -999  60.2 -99.9 1021.5 -9.9 -9.999 -99.9 -99.99 -9.99
2019/10/15 11:00 EDT    0.50   1.40 -999 -999 -999  60.4 -99.9 1021.6 -9.9 -9.999 -99.9 -99.99 -9.99
2019/10/15 11:06 EDT    0.48   1.39 -999 -999 -999  60.6 -99.9 1021.6 -9.9 -9.999 -99.9 -99.99 -9.99
2019/10/15 11:12 EDT    0.46   1.37 -999 -999 -999  60.5 -99.9 1021.6 -9.9 -9.999 -99.9 -99.99 -9.99
2019/10/15 11:18 EDT    0.44   1.35 -999 -999 -999  60.8 -99.9 1021.6 -9.9 -9.999 -99.9 -99.99 -9.99
2019/10/15 11:24 EDT    0.42   1.33 -999 -999 -999  61.0 -99.9 1021.6 -9.9 -9.999 -99.9 -99.99 -9.99
2019/10/15 11:30 EDT    0.41   1.32 -999 -999 -999  61.0 -99.9 1021.5 -9.9 -9.999 -99.9 -99.99 -9.99
2019/10/15 11:36 EDT    0.39   1.29 -999 -999 -999  61.4 -99.9 1021.4 -9.9 -9.999 -99.9 -99.99 -9.99
2019/10/15 11:42 EDT    0.37   1.28 -999 -999 -999  61.3 -99.9 1021.3 -9.9 -9.999 -99.9 -99.99 -9.99
2019/10/15 11:48 EDT    0.36   1.26 -999 -999 -999  61.4 -99.9 1021.3 -9.9 -9.999 -99.9 -99.99 -9.99
2019/10/15 11:54 EDT    0.35   1.24 -999 -999 -999  61.9 -99.9 1021.2 -9.9 -9.999 -99.9 -99.99 -9.99
2019/10/15 12:00 EDT    0.33   1.23 -999 -999 -999  61.9 -99.9 1021.2 -9.9 -9.999 -99.9 -99.99 -9.99
2019/10/15 12:06 EDT    0.32   1.22 -999 -999 -999  62.2 -99.9 1021.2 -9.9 -9.999 -99.9 -99.99 -9.99
2019/10/15 12:12 EDT    0.31   1.21 -999 -999 -999  62.4 -99.9 1021.2 -9.9 -9.999 -99.9 -99.99 -9.99
2019/10/15 12:18 EDT    0.30   1.20 -999 -999 -999  62.3 -99.9 1021.1 -9.9 -9.999 -99.9 -99.99 -9.99
2019/10/15 12:24 EDT    0.29   1.19 -999 -999 -999  62.5 -99.9 1021.0 -9.9 -9.999 -99.9 -99.99 -9.99
2019/10/15 12:30 EDT    0.29   1.19 -999 -999 -999  62.6 -99.9 1021.0 -9.9 -9.999 -99.9 -99.99 -9.99
2019/10/15 12:36 EDT    0.28   1.18 -999 -999 -999  62.8 -99.9 1021.0 -9.9 -9.999 -99.9 -99.99 -9.99
2019/10/15 12:42 EDT    0.28   1.18 -999 -999 -999  62.9 -99.9 1020.9 -9.9 -9.999 -99.9 -99.99 -9.99
2019/10/15 12:48 EDT    0.28   1.18 -999 -999 -999  63.3 -99.9 1020.8 -9.9 -9.999 -99.9 -99.99 -9.99
2019/10/15 12:54 EDT    0.28   1.18 -999 -999 -999  63.5 -99.9 1020.7 -9.9 -9.999 -99.9 -99.99 -9.99
2019/10/15 13:00 EDT    0.28   1.18 -999 -999 -999  63.9 -99.9 1020.7 -9.9 -9.999 -99.9 -99.99 -9.99
2019/10/15 13:06 EDT    0.28   1.19 -999 -999 -999  64.5 -99.9 1020.6 -9.9 -9.999 -99.9 -99.99 -9.99
2019/10/15 13:12 EDT    0.28   1.20 -999 -999 -999  64.5 -99.9 1020.5 -9.9 -9.999 -99.9 -99.99 -9.99
2019/10/15 13:18 EDT    0.29   1.21 -999 -999 -999  64.7 -99.9 1020.5 -9.9 -9.999 -99.9 -99.99 -9.99
2019/10/15 13:24 EDT    0.30   1.22 -999 -999 -999  64.7 -99.9 1020.4 -9.9 -9.999 -99.9 -99.99 -9.99
2019/10/15 13:30 EDT    0.31   1.22 -999 -999 -999  64.7 -99.9 1020.3 -9.9 -9.999 -99.9 -99.99 -9.99
2019/10/15 13:36 EDT    0.32   1.24 -999 -999 -999  64.9 -99.9 1020.2 -9.9 -9.999 -99.9 -99.99 -9.99
2019/10/15 13:42 EDT    0.33   1.25 -999 -999 -999  65.4 -99.9 1020.1 -9.9 -9.999 -99.9 -99.99 -9.99
2019/10/15 13:48 EDT    0.35   1.27 -999 -999 -999  65.5 -99.9 1020.1 -9.9 -9.999 -99.9 -99.99 -9.99
2019/10/15 13:54 EDT    0.36   1.29 -999 -999 -999  65.5 -99.9 1020.1 -9.9 -9.999 -99.9 -99.99 -9.99
2019/10/15 14:00 EDT    0.38   1.29 -999 -999 -999  65.2 -99.9 1020.1 -9.9 -9.999 -99.9 -99.99 -9.99
2019/10/15 14:06 EDT    0.40   1.31 -999 -999 -999  64.9 -99.9 1019.9 -9.9 -9.999 -99.9 -99.99 -9.99
2019/10/15 14:12 EDT    0.42   1.33 -999 -999 -999  64.8 -99.9 1019.8 -9.9 -9.999 -99.9 -99.99 -9.99
2019/10/15 14:18 EDT    0.44   1.35 -999 -999 -999  64.4 -99.9 1019.7 -9.9 -9.999 -99.9 -99.99 -9.99
2019/10/15 14:24 EDT    0.47   1.39 -999 -999 -999  64.3 -99.9 1019.6 -9.9 -9.999 -99.9 -99.99 -9.99
2019/10/15 14:30 EDT    0.49   1.41 -999 -999 -999  64.4 -99.9 1019.5 -9.9 -9.999 -99.9 -99.99 -9.99
2019/10/15 14:36 EDT    0.52   1.44 -999 -999 -999  64.6 -99.9 1019.4 -9.9 -9.999 -99.9 -99.99 -9.99
2019/10/15 14:42 EDT    0.54   1.47 -999 -999 -999  64.8 -99.9 1019.3 -9.9 -9.999 -99.9 -99.99 -9.99
2019/10/15 14:48 EDT    0.57   1.45 -999 -999 -999  64.9 -99.9 1019.3 -9.9 -9.999 -99.9 -99.99 -9.99
2019/10/15 14:54 EDT    0.60   1.49 -999 -999 -999  64.7 -99.9 1019.2 -9.9 -9.999 -99.9 -99.99 -9.99
2019/10/15 15:00 EDT    0.62   1.53 -999 -999 -999  64.9 -99.9 1019.1 -9.9 -9.999 -99.9 -99.99 -9.99
2019/10/15 15:06 EDT    0.65   1.56 -999 -999 -999  65.1 -99.9 1019.1 -9.9 -9.999 -99.9 -99.99 -9.99
2019/10/15 15:12 EDT    0.68   1.58 -999 -999 -999  65.2 -99.9 1019.0 -9.9 -9.999 -99.9 -99.99 -9.99
2019/10/15 15:18 EDT    0.71   1.61 -999 -999 -999  65.2 -99.9 1019.0 -9.9 -9.999 -99.9 -99.99 -9.99
2019/10/15 15:24 EDT    0.74   1.63 -999 -999 -999  65.6 -99.9 1018.9 -9.9 -9.999 -99.9 -99.99 -9.99
2019/10/15 15:30 EDT    0.77   1.65 -999 -999 -999  65.9 -99.9 1018.8 -9.9 -9.999 -99.9 -99.99 -9.99
2019/10/15 15:36 EDT    0.80   1.70 -999 -999 -999  65.9 -99.9 1018.7 -9.9 -9.999 -99.9 -99.99 -9.99
2019/10/15 15:42 EDT    0.83   1.72 -999 -999 -999  65.9 -99.9 1018.6 -9.9 -9.999 -99.9 -99.99 -9.99
2019/10/15 15:48 EDT    0.86   1.74 -999 -999 -999  65.5 -99.9 1018.6 -9.9 -9.999 -99.9 -99.99 -9.99
2019/10/15 15:54 EDT    0.89   1.78 -999 -999 -999  65.8 -99.9 1018.6 -9.9 -9.999 -99.9 -99.99 -9.99
2019/10/15 16:00 EDT    0.92   1.78 -999 -999 -999  65.7 -99.9 1018.6 -9.9 -9.999 -99.9 -99.99 -9.99
2019/10/15 16:06 EDT    0.95   1.80 -999 -999 -999  65.8 -99.9 1018.6 -9.9 -9.999 -99.9 -99.99 -9.99
2019/10/15 16:12 EDT    0.98   1.83 -999 -999 -999  65.8 -99.9 1018.5 -9.9 -9.999 -99.9 -99.99 -9.99
2019/10/15 16:18 EDT    1.01   1.85 -999 -999 -999  65.9 -99.9 1018.4 -9.9 -9.999 -99.9 -99.99 -9.99
2019/10/15 16:24 EDT    1.03   1.90 -999 -999 -999  65.5 -99.9 1018.3 -9.9 -9.999 -99.9 -99.99 -9.99
2019/10/15 16:30 EDT    1.06   1.93 -999 -999 -999  65.7 -99.9 1018.1 -9.9 -9.999 -99.9 -99.99 -9.99
2019/10/15 16:36 EDT    1.09   1.95 -999 -999 -999  65.7 -99.9 1018.0 -9.9 -9.999 -99.9 -99.99 -9.99
2019/10/15 16:42 EDT    1.12   1.97 -999 -999 -999  66.1 -99.9 1017.9 -9.9 -9.999 -99.9 -99.99 -9.99
2019/10/15 16:48 EDT    1.14   1.97 -999 -999 -999  66.2 -99.9 1018.0 -9.9 -9.999 -99.9 -99.99 -9.99
2019/10/15 16:54 EDT    1.17   2.01 -999 -999 -999  66.2 -99.9 1017.9 -9.9 -9.999 -99.9 -99.99 -9.99
2019/10/15 17:00 EDT    1.19   2.03 -999 -999 -999  66.0 -99.9 1017.9 -9.9 -9.999 -99.9 -99.99 -9.99
2019/10/15 17:06 EDT    1.22   2.05 -999 -999 -999  66.1 -99.9 1017.7 -9.9 -9.999 -99.9 -99.99 -9.99
2019/10/15 17:12 EDT    1.24   2.08 -999 -999 -999  65.9 -99.9 1017.7 -9.9 -9.999 -99.9 -99.99 -9.99
2019/10/15 17:18 EDT    1.27   2.11 -999 -999 -999  65.9 -99.9 1017.6 -9.9 -9.999 -99.9 -99.99 -9.99
2019/10/15 17:24 EDT    1.29   2.12 -999 -999 -999  65.7 -99.9 1017.5 -9.9 -9.999 -99.9 -99.99 -9.99
2019/10/15 17:30 EDT    1.31   2.14 -999 -999 -999  65.7 -99.9 1017.5 -9.9 -9.999 -99.9 -99.99 -9.99
2019/10/15 17:36 EDT    1.33   2.16 -999 -999 -999  65.7 -99.9 1017.5 -9.9 -9.999 -99.9 -99.99 -9.99
2019/10/15 17:42 EDT    1.35   2.19 -999 -999 -999  65.6 -99.9 1017.6 -9.9 -9.999 -99.9 -99.99 -9.99
2019/10/15 17:48 EDT    1.37   2.21 -999 -999 -999  65.5 -99.9 1017.7 -9.9 -9.999 -99.9 -99.99 -9.99
2019/10/15 17:54 EDT    1.39   2.23 -999 -999 -999  65.4 -99.9 1017.6 -9.9 -9.999 -99.9 -99.99 -9.99
2019/10/15 18:00 EDT    1.41   2.23 -999 -999 -999  65.4 -99.9 1017.5 -9.9 -9.999 -99.9 -99.99 -9.99
2019/10/15 18:06 EDT    1.42   2.26 -999 -999 -999  65.1 -99.9 1017.6 -9.9 -9.999 -99.9 -99.99 -9.99
2019/10/15 18:12 EDT    1.44   2.27 -999 -999 -999  64.6 -99.9 1017.6 -9.9 -9.999 -99.9 -99.99 -9.99
2019/10/15 18:18 EDT    1.46   2.28 -999 -999 -999  64.3 -99.9 1017.6 -9.9 -9.999 -99.9 -99.99 -9.99
2019/10/15 18:24 EDT    1.47   2.29 -999 -999 -999  64.1 -99.9 1017.5 -9.9 -9.999 -99.9 -99.99 -9.99
2019/10/15 18:30 EDT    1.48   2.30 -999 -999 -999  63.8 -99.9 1017.4 -9.9 -9.999 -99.9 -99.99 -9.99
2019/10/15 18:36 EDT    1.49   2.32 -999 -999 -999  63.6 -99.9 1017.4 -9.9 -9.999 -99.9 -99.99 -9.99
2019/10/15 18:42 EDT    1.50   2.33 -999 -999 -999  63.5 -99.9 1017.5 -9.9 -9.999 -99.9 -99.99 -9.99
2019/10/15 18:48 EDT    1.51   2.33 -999 -999 -999  63.3 -99.9 1017.5 -9.9 -9.999 -99.9 -99.99 -9.99
2019/10/15 18:54 EDT    1.52   2.33 -999 -999 -999  63.3 -99.9 1017.5 -9.9 -9.999 -99.9 -99.99 -9.99
2019/10/15 19:00 EDT    1.52   2.34 -999 -999 -999  63.3 -99.9 1017.5 -9.9 -9.999 -99.9 -99.99 -9.99
2019/10/15 19:06 EDT    1.53   2.35 -999 -999 -999  62.9 -99.9 1017.5 -9.9 -9.999 -99.9 -99.99 -9.99
2019/10/15 19:12 EDT    1.53   2.34 -999 -999 -999  62.9 -99.9 1017.4 -9.9 -9.999 -99.9 -99.99 -9.99
2019/10/15 19:18 EDT    1.53   2.34 -999 -999 -999  62.7 -99.9 1017.4 -9.9 -9.999 -99.9 -99.99 -9.99
2019/10/15 19:24 EDT    1.53   2.34 -999 -999 -999  62.5 -99.9 1017.3 -9.9 -9.999 -99.9 -99.99 -9.99
2019/10/15 19:30 EDT    1.53   2.34 -999 -999 -999  62.3 -99.9 1017.3 -9.9 -9.999 -99.9 -99.99 -9.99
2019/10/15 19:36 EDT    1.53   2.34 -999 -999 -999  62.0 -99.9 1017.3 -9.9 -9.999 -99.9 -99.99 -9.99
2019/10/15 19:42 EDT    1.53   2.32 -999 -999 -999  61.9 -99.9 1017.2 -9.9 -9.999 -99.9 -99.99 -9.99
2019/10/15 19:48 EDT    1.52   2.32 -999 -999 -999  61.9 -99.9 1017.3 -9.9 -9.999 -99.9 -99.99 -9.99
2019/10/15 19:54 EDT    1.51   2.31 -999 -999 -999  61.9 -99.9 1017.3 -9.9 -9.999 -99.9 -99.99 -9.99
2019/10/15 20:00 EDT    1.51   2.30 -999 -999 -999  61.7 -99.9 1017.2 -9.9 -9.999 -99.9 -99.99 -9.99
2019/10/15 20:06 EDT    1.50   2.30 -999 -999 -999  61.8 -99.9 1017.2 -9.9 -9.999 -99.9 -99.99 -9.99
2019/10/15 20:12 EDT    1.49   2.29 -999 -999 -999  61.8 -99.9 1017.1 -9.9 -9.999 -99.9 -99.99 -9.99
2019/10/15 20:18 EDT    1.47   2.27 -999 -999 -999  61.4 -99.9 1017.0 -9.9 -9.999 -99.9 -99.99 -9.99
2019/10/15 20:24 EDT    1.46   2.27 -999 -999 -999  61.1 -99.9 1016.8 -9.9 -9.999 -99.9 -99.99 -9.99
2019/10/15 20:30 EDT    1.45   2.25 -999 -999 -999  61.9 -99.9 1016.8 -9.9 -9.999 -99.9 -99.99 -9.99
2019/10/15 20:36 EDT    1.43   2.25 -999 -999 -999  63.3 -99.9 1016.7 -9.9 -9.999 -99.9 -99.99 -9.99
2019/10/15 20:42 EDT    1.42   2.23 -999 -999 -999  63.7 -99.9 1016.7 -9.9 -9.999 -99.9 -99.99 -9.99
2019/10/15 20:48 EDT    1.40   2.23 -999 -999 -999  63.9 -99.9 1016.7 -9.9 -9.999 -99.9 -99.99 -9.99
2019/10/15 20:54 EDT    1.38   2.22 -999 -999 -999  64.0 -99.9 1016.7 -9.9 -9.999 -99.9 -99.99 -9.99
2019/10/15 21:00 EDT    1.36   2.19 -999 -999 -999  64.1 -99.9 1016.7 -9.9 -9.999 -99.9 -99.99 -9.99
2019/10/15 21:06 EDT    1.34   2.15 -999 -999 -999  64.3 -99.9 1016.7 -9.9 -9.999 -99.9 -99.99 -9.99
2019/10/15 21:12 EDT    1.32   2.15 -999 -999 -999  63.8 -99.9 1016.8 -9.9 -9.999 -99.9 -99.99 -9.99
2019/10/15 21:18 EDT    1.30   2.13 -999 -999 -999  63.9 -99.9 1016.7 -9.9 -9.999 -99.9 -99.99 -9.99
2019/10/15 21:24 EDT    1.28   2.13 -999 -999 -999  63.8 -99.9 1016.8 -9.9 -9.999 -99.9 -99.99 -9.99
2019/10/15 21:30 EDT    1.26   2.12 -999 -999 -999  63.5 -99.9 1016.8 -9.9 -9.999 -99.9 -99.99 -9.99
2019/10/15 21:36 EDT    1.24   2.11 -999 -999 -999  63.2 -99.9 1016.8 -9.9 -9.999 -99.9 -99.99 -9.99
2019/10/15 21:42 EDT    1.22   2.10 -999 -999 -999  63.0 -99.9 1016.8 -9.9 -9.999 -99.9 -99.99 -9.99
2019/10/15 21:48 EDT    1.20   2.10 -999 -999 -999  63.0 -99.9 1016.7 -9.9 -9.999 -99.9 -99.99 -9.99
2019/10/15 21:54 EDT    1.18   2.09 -999 -999 -999  63.2 -99.9 1016.7 -9.9 -9.999 -99.9 -99.99 -9.99
2019/10/15 22:00 EDT    1.16   2.07 -999 -999 -999  63.1 -99.9 1016.7 -9.9 -9.999 -99.9 -99.99 -9.99
2019/10/15 22:06 EDT    1.13   2.05 -999 -999 -999  63.0 -99.9 1016.7 -9.9 -9.999 -99.9 -99.99 -9.99
2019/10/15 22:12 EDT    1.11   2.05 -999 -999 -999  63.1 -99.9 1016.5 -9.9 -9.999 -99.9 -99.99 -9.99
2019/10/15 22:18 EDT    1.09   2.02 -999 -999 -999  62.9 -99.9 1016.5 -9.9 -9.999 -99.9 -99.99 -9.99
2019/10/15 22:24 EDT    1.07   2.01 -999 -999 -999  62.9 -99.9 1016.4 -9.9 -9.999 -99.9 -99.99 -9.99
2019/10/15 22:30 EDT    1.04   1.97 -999 -999 -999  62.7 -99.9 1016.5 -9.9 -9.999 -99.9 -99.99 -9.99
2019/10/15 22:36 EDT    1.02   1.95 -999 -999 -999  62.6 -99.9 1016.6 -9.9 -9.999 -99.9 -99.99 -9.99
2019/10/15 22:42 EDT    1.00   1.93 -999 -999 -999  62.5 -99.9 1016.7 -9.9 -9.999 -99.9 -99.99 -9.99
2019/10/15 22:48 EDT    0.98   1.91 -999 -999 -999  62.4 -99.9 1016.6 -9.9 -9.999 -99.9 -99.99 -9.99
2019/10/15 22:54 EDT    0.96   1.88 -999 -999 -999  62.4 -99.9 1016.7 -9.9 -9.999 -99.9 -99.99 -9.99
2019/10/15 23:00 EDT    0.93   1.87 -999 -999 -999  62.5 -99.9 1016.7 -9.9 -9.999 -99.9 -99.99 -9.99
2019/10/15 23:06 EDT    0.91   1.86 -999 -999 -999  62.3 -99.9 1016.6 -9.9 -9.999 -99.9 -99.99 -9.99
2019/10/15 23:12 EDT    0.89   1.85 -999 -999 -999  62.2 -99.9 1016.7 -9.9 -9.999 -99.9 -99.99 -9.99
2019/10/15 23:18 EDT    0.87   1.84 -999 -999 -999  62.2 -99.9 1016.6 -9.9 -9.999 -99.9 -99.99 -9.99
2019/10/15 23:24 EDT    0.85   1.82 -999 -999 -999  62.1 -99.9 1016.5 -9.9 -9.999 -99.9 -99.99 -9.99
2019/10/15 23:30 EDT    0.83   1.81 -999 -999 -999  62.1 -99.9 1016.3 -9.9 -9.999 -99.9 -99.99 -9.99
2019/10/15 23:36 EDT    0.81   1.80 -999 -999 -999  62.0 -99.9 1016.2 -9.9 -9.999 -99.9 -99.99 -9.99
2019/10/15 23:42 EDT    0.79   1.77 -999 -999 -999  62.0 -99.9 1016.2 -9.9 -9.999 -99.9 -99.99 -9.99
2019/10/15 23:48 EDT    0.77   1.75 -999 -999 -999  62.0 -99.9 1016.2 -9.9 -9.999 -99.9 -99.99 -9.99
2019/10/15 23:54 EDT    0.75   1.72 -999 -999 -999  61.8 -99.9 1016.1 -9.9 -9.999 -99.9 -99.99 -9.99
2019/10/16 00:00 EDT    0.73   1.70 -999 -999 -999  61.8 -99.9 1016.0 -9.9 -9.999 -99.9 -99.99 -9.99
2019/10/16 00:06 EDT    0.71   1.69 -999 -999 -999  61.7 -99.9 1016.0 -9.9 -9.999 -99.9 -99.99 -9.99
2019/10/16 00:12 EDT    0.69   1.67 -999 -999 -999  61.6 -99.9 1015.9 -9.9 -9.999 -99.9 -99.99 -9.99
2019/10/16 00:18 EDT    0.68   1.66 -999 -999 -999  61.7 -99.9 1015.8 -9.9 -9.999 -99.9 -99.99 -9.99
2019/10/16 00:24 EDT    0.66   1.66 -999 -999 -999  61.7 -99.9 1015.8 -9.9 -9.999 -99.9 -99.99 -9.99
2019/10/16 00:30 EDT    0.65   1.66 -999 -999 -999  61.7 -99.9 1015.8 -9.9 -9.999 -99.9 -99.99 -9.99
2019/10/16 00:36 EDT    0.63   1.65 -999 -999 -999  61.8 -99.9 1015.8 -9.9 -9.999 -99.9 -99.99 -9.99
2019/10/16 00:42 EDT    0.62   1.64 -999 -999 -999  61.7 -99.9 1015.7 -9.9 -9.999 -99.9 -99.99 -9.99
2019/10/16 00:48 EDT    0.61   1.63 -999 -999 -999  61.7 -99.9 1015.7 -9.9 -9.999 -99.9 -99.99 -9.99
2019/10/16 00:54 EDT    0.60   1.64 -999 -999 -999  61.7 -99.9 1015.7 -9.9 -9.999 -99.9 -99.99 -9.99
2019/10/16 01:00 EDT    0.59   1.64 -999 -999 -999  61.8 -99.9 1015.7 -9.9 -9.999 -99.9 -99.99 -9.99
2019/10/16 01:06 EDT    0.58   1.63 -999 -999 -999  61.8 -99.9 1015.6 -9.9 -9.999 -99.9 -99.99 -9.99
2019/10/16 01:12 EDT    0.57   1.64 -999 -999 -999  62.1 -99.9 1015.6 -9.9 -9.999 -99.9 -99.99 -9.99
2019/10/16 01:18 EDT    0.57   1.64 -999 -999 -999  62.1 -99.9 1015.5 -9.9 -9.999 -99.9 -99.99 -9.99
2019/10/16 01:24 EDT    0.57   1.64 -999 -999 -999  62.1 -99.9 1015.5 -9.9 -9.999 -99.9 -99.99 -9.99
2019/10/16 01:30 EDT    0.56   1.66 -999 -999 -999  62.3 -99.9 1015.3 -9.9 -9.999 -99.9 -99.99 -9.99
2019/10/16 01:36 EDT    0.56   1.67 -999 -999 -999  62.4 -99.9 1015.3 -9.9 -9.999 -99.9 -99.99 -9.99
2019/10/16 01:42 EDT    0.56   1.68 -999 -999 -999  62.4 -99.9 1015.3 -9.9 -9.999 -99.9 -99.99 -9.99
2019/10/16 01:48 EDT    0.56   1.68 -999 -999 -999  62.4 -99.9 1015.2 -9.9 -9.999 -99.9 -99.99 -9.99
2019/10/16 01:54 EDT    0.57   1.69 -999 -999 -999  62.5 -99.9 1015.1 -9.9 -9.999 -99.9 -99.99 -9.99
2019/10/16 02:00 EDT    0.57   1.69 -999 -999 -999  62.6 -99.9 1015.1 -9.9 -9.999 -99.9 -99.99 -9.99
2019/10/16 02:06 EDT    0.58   1.72 -999 -999 -999  62.6 -99.9 1014.9 -9.9 -9.999 -99.9 -99.99 -9.99
2019/10/16 02:12 EDT    0.59   1.72 -999 -999 -999  62.3 -99.9 1014.9 -9.9 -9.999 -99.9 -99.99 -9.99
2019/10/16 02:18 EDT    0.60   1.74 -999 -999 -999  62.5 -99.9 1014.8 -9.9 -9.999 -99.9 -99.99 -9.99
2019/10/16 02:24 EDT    0.61   1.77 -999 -999 -999  62.4 -99.9 1014.7 -9.9 -9.999 -99.9 -99.99 -9.99
2019/10/16 02:30 EDT    0.62   1.80 -999 -999 -999  62.4 -99.9 1014.6 -9.9 -9.999 -99.9 -99.99 -9.99
2019/10/16 02:36 EDT    0.63   1.83 -999 -999 -999  62.7 -99.9 1014.6 -9.9 -9.999 -99.9 -99.99 -9.99
2019/10/16 02:42 EDT    0.65   1.84 -999 -999 -999  62.4 -99.9 1014.6 -9.9 -9.999 -99.9 -99.99 -9.99
2019/10/16 02:48 EDT    0.66   1.86 -999 -999 -999  62.6 -99.9 1014.5 -9.9 -9.999 -99.9 -99.99 -9.99
2019/10/16 02:54 EDT    0.68   1.91 -999 -999 -999  62.5 -99.9 1014.3 -9.9 -9.999 -99.9 -99.99 -9.99
2019/10/16 03:00 EDT    0.69   1.91 -999 -999 -999  62.5 -99.9 1014.2 -9.9 -9.999 -99.9 -99.99 -9.99
2019/10/16 03:06 EDT    0.71   1.93 -999 -999 -999  62.3 -99.9 1014.1 -9.9 -9.999 -99.9 -99.99 -9.99
2019/10/16 03:12 EDT    0.73   1.93 -999 -999 -999  62.3 -99.9 1013.8 -9.9 -9.999 -99.9 -99.99 -9.99
2019/10/16 03:18 EDT    0.75   1.95 -999 -999 -999  62.1 -99.9 1013.7 -9.9 -9.999 -99.9 -99.99 -9.99
2019/10/16 03:24 EDT    0.77   1.98 -999 -999 -999  62.2 -99.9 1013.6 -9.9 -9.999 -99.9 -99.99 -9.99
2019/10/16 03:30 EDT    0.78   2.01 -999 -999 -999  62.4 -99.9 1013.5 -9.9 -9.999 -99.9 -99.99 -9.99
2019/10/16 03:36 EDT    0.80   2.03 -999 -999 -999  62.3 -99.9 1013.4 -9.9 -9.999 -99.9 -99.99 -9.99
2019/10/16 03:42 EDT    0.82   2.05 -999 -999 -999  62.2 -99.9 1013.3 -9.9 -9.999 -99.9 -99.99 -9.99
2019/10/16 03:48 EDT    0.84   2.08 -999 -999 -999  62.1 -99.9 1013.1 -9.9 -9.999 -99.9 -99.99 -9.99
2019/10/16 03:54 EDT    0.86   2.11 -999 -999 -999  62.1 -99.9 1013.0 -9.9 -9.999 -99.9 -99.99 -9.99
2019/10/16 04:00 EDT    0.88   2.13 -999 -999 -999  62.3 -99.9 1013.0 -9.9 -9.999 -99.9 -99.99 -9.99
2019/10/16 04:06 EDT    0.90   2.16 -999 -999 -999  62.6 -99.9 1013.0 -9.9 -9.999 -99.9 -99.99 -9.99
2019/10/16 04:12 EDT    0.92   2.18 -999 -999 -999  62.6 -99.9 1013.0 -9.9 -9.999 -99.9 -99.99 -9.99
2019/10/16 04:18 EDT    0.94   2.20 -999 -999 -999  62.8 -99.9 1013.0 -9.9 -9.999 -99.9 -99.99 -9.99
2019/10/16 04:24 EDT    0.96   2.22 -999 -999 -999  62.8 -99.9 1012.9 -9.9 -9.999 -99.9 -99.99 -9.99
2019/10/16 04:30 EDT    0.98   2.24 -999 -999 -999  62.9 -99.9 1012.9 -9.9 -9.999 -99.9 -99.99 -9.99
2019/10/16 04:36 EDT    1.00   2.27 -999 -999 -999  63.1 -99.9 1013.0 -9.9 -9.999 -99.9 -99.99 -9.99
2019/10/16 04:42 EDT    1.02   2.30 -999 -999 -999  63.1 -99.9 1012.9 -9.9 -9.999 -99.9 -99.99 -9.99
2019/10/16 04:48 EDT    1.03   2.32 -999 -999 -999  63.1 -99.9 1012.8 -9.9 -9.999 -99.9 -99.99 -9.99
2019/10/16 04:54 EDT    1.05   2.34 -999 -999 -999  63.2 -99.9 1012.7 -9.9 -9.999 -99.9 -99.99 -9.99
2019/10/16 05:00 EDT    1.07   2.34 -999 -999 -999  63.2 -99.9 1012.6 -9.9 -9.999 -99.9 -99.99 -9.99
2019/10/16 05:06 EDT    1.08   2.37 -999 -999 -999  63.2 -99.9 1012.5 -9.9 -9.999 -99.9 -99.99 -9.99
2019/10/16 05:12 EDT    1.10   2.38 -999 -999 -999  63.2 -99.9 1012.3 -9.9 -9.999 -99.9 -99.99 -9.99
2019/10/16 05:18 EDT    1.11   2.40 -999 -999 -999  63.2 -99.9 1012.2 -9.9 -9.999 -99.9 -99.99 -9.99
2019/10/16 05:24 EDT    1.13   2.42 -999 -999 -999  63.1 -99.9 1012.1 -9.9 -9.999 -99.9 -99.99 -9.99
2019/10/16 05:30 EDT    1.14   2.45 -999 -999 -999  63.3 -99.9 1012.1 -9.9 -9.999 -99.9 -99.99 -9.99
2019/10/16 05:36 EDT    1.15   2.48 -999 -999 -999  63.3 -99.9 1012.0 -9.9 -9.999 -99.9 -99.99 -9.99
2019/10/16 05:42 EDT    1.17   2.50 -999 -999 -999  63.4 -99.9 1011.9 -9.9 -9.999 -99.9 -99.99 -9.99
2019/10/16 05:48 EDT    1.18   2.52 -999 -999 -999  63.3 -99.9 1011.8 -9.9 -9.999 -99.9 -99.99 -9.99
2019/10/16 05:54 EDT    1.19   2.53 -999 -999 -999  63.4 -99.9 1011.6 -9.9 -9.999 -99.9 -99.99 -9.99
2019/10/16 06:00 EDT    1.20   2.56 -999 -999 -999  63.5 -99.9 1011.5 -9.9 -9.999 -99.9 -99.99 -9.99
2019/10/16 06:06 EDT    1.21   2.57 -999 -999 -999  63.5 -99.9 1011.6 -9.9 -9.999 -99.9 -99.99 -9.99
2019/10/16 06:12 EDT    1.22   2.59 -999 -999 -999  63.5 -99.9 1011.7 -9.9 -9.999 -99.9 -99.99 -9.99
2019/10/16 06:18 EDT    1.23   2.60 -999 -999 -999  63.6 -99.9 1011.7 -9.9 -9.999 -99.9 -99.99 -9.99
2019/10/16 06:24 EDT    1.23   2.61 -999 -999 -999  63.6 -99.9 1011.7 -9.9 -9.999 -99.9 -99.99 -9.99
2019/10/16 06:30 EDT    1.24   2.61 -999 -999 -999  63.4 -99.9 1011.3 -9.9 -9.999 -99.9 -99.99 -9.99
2019/10/16 06:36 EDT    1.24   2.62 -999 -999 -999  63.2 -99.9 1011.1 -9.9 -9.999 -99.9 -99.99 -9.99
2019/10/16 06:42 EDT    1.25   2.63 -999 -999 -999  63.0 -99.9 1011.1 -9.9 -9.999 -99.9 -99.99 -9.99
2019/10/16 06:48 EDT    1.25   2.64 -999 -999 -999  62.8 -99.9 1011.0 -9.9 -9.999 -99.9 -99.99 -9.99
2019/10/16 06:54 EDT    1.25   2.64 -999 -999 -999  62.8 -99.9 1011.1 -9.9 -9.999 -99.9 -99.99 -9.99
2019/10/16 07:00 EDT    1.25   2.65 -999 -999 -999  62.8 -99.9 1011.3 -9.9 -9.999 -99.9 -99.99 -9.99
2019/10/16 07:06 EDT    1.25   2.64 -999 -999 -999  62.7 -99.9 1011.2 -9.9 -9.999 -99.9 -99.99 -9.99
2019/10/16 07:12 EDT    1.25   2.64 -999 -999 -999  62.8 -99.9 1011.4 -9.9 -9.999 -99.9 -99.99 -9.99
2019/10/16 07:18 EDT    1.25   2.65 -999 -999 -999  62.9 -99.9 1011.4 -9.9 -9.999 -99.9 -99.99 -9.99
2019/10/16 07:24 EDT    1.25   2.65 -999 -999 -999  62.6 -99.9 1011.4 -9.9 -9.999 -99.9 -99.99 -9.99
2019/10/16 07:30 EDT    1.24   2.66 -999 -999 -999  62.6 -99.9 1011.5 -9.9 -9.999 -99.9 -99.99 -9.99
2019/10/16 07:36 EDT    1.24   2.66 -999 -999 -999  62.6 -99.9 1011.6 -9.9 -9.999 -99.9 -99.99 -9.99
2019/10/16 07:42 EDT    1.23   2.65 -999 -999 -999  62.7 -99.9 1011.4 -9.9 -9.999 -99.9 -99.99 -9.99
2019/10/16 07:48 EDT    1.22   2.63 -999 -999 -999  62.8 -99.9 1011.3 -9.9 -9.999 -99.9 -99.99 -9.99
2019/10/16 07:54 EDT    1.21   2.62 -999 -999 -999  62.9 -99.9 1011.3 -9.9 -9.999 -99.9 -99.99 -9.99
2019/10/16 08:00 EDT    1.20   2.61 -999 -999 -999  63.1 -99.9 1011.1 -9.9 -9.999 -99.9 -99.99 -9.99
2019/10/16 08:06 EDT    1.19   2.60 -999 -999 -999  63.4 -99.9 1011.0 -9.9 -9.999 -99.9 -99.99 -9.99
2019/10/16 08:12 EDT    1.17   2.58 -999 -999 -999  63.6 -99.9 1010.9 -9.9 -9.999 -99.9 -99.99 -9.99
2019/10/16 08:18 EDT    1.16   2.57 -999 -999 -999  63.8 -99.9 1010.8 -9.9 -9.999 -99.9 -99.99 -9.99
2019/10/16 08:24 EDT    1.14   2.55 -999 -999 -999  63.8 -99.9 1010.7 -9.9 -9.999 -99.9 -99.99 -9.99
2019/10/16 08:30 EDT    1.13   2.53 -999 -999 -999  63.8 -99.9 1010.4 -9.9 -9.999 -99.9 -99.99 -9.99
2019/10/16 08:36 EDT    1.11   2.52 -999 -999 -999  63.8 -99.9 1010.3 -9.9 -9.999 -99.9 -99.99 -9.99
2019/10/16 08:42 EDT    1.09   2.51 -999 -999 -999  64.0 -99.9 1010.3 -9.9 -9.999 -99.9 -99.99 -9.99
2019/10/16 08:48 EDT    1.07   2.49 -999 -999 -999  64.0 -99.9 1010.1 -9.9 -9.999 -99.9 -99.99 -9.99
2019/10/16 08:54 EDT    1.05 -99.99 -999 -999 -999 -99.9 -99.9 -999.9 -9.9 -9.999 -99.9 -99.99 -9.99
2019/10/16 09:00 EDT    1.03 -99.99 -999 -999 -999 -99.9 -99.9 -999.9 -9.9 -9.999 -99.9 -99.99 -9.99